AA1632 / N118NZ 7700 Squawk Report (13th of January, 2022)

Time Lat Lon Altitude Heading Speed Vertical Rate
2022-01-13 14:02:30 GMT 43.415314 5.245588 150 313 75 -576
2022-01-13 14:01:57 GMT 43.407166 5.257214 475 315 84 -640
2022-01-13 14:01:49 GMT 43.405106 5.260024 550 315 89 -768
2022-01-13 14:01:40 GMT 43.402420 5.263759 650 315 97 -640
2022-01-13 14:01:27 GMT 43.398056 5.269924 800 315 99 -640
2022-01-13 14:01:24 GMT 43.397141 5.271202 825 314 99 -640
2022-01-13 14:01:20 GMT 43.395859 5.273054 875 314 99 -768
2022-01-13 14:01:11 GMT 43.392876 5.277296 1,000 314 99 -768
2022-01-13 14:01:00 GMT 43.389771 5.281741 1,125 313 98 -832
2022-01-13 14:00:56 GMT 43.388363 5.283835 1,200 314 97 -832
2022-01-13 14:00:47 GMT 43.385696 5.287681 1,300 314 96 -704
2022-01-13 14:00:37 GMT 43.382446 5.292280 1,450 315 105 -64
2022-01-13 14:00:25 GMT 43.378784 5.297263 1,450 315 105 -64
2022-01-13 14:00:16 GMT 43.375511 5.301753 1,450 315 111 0
2022-01-13 14:00:08 GMT 43.372467 5.305949 1,450 315 118 0
2022-01-13 14:00:01 GMT 43.369648 5.309862 1,450 315 126 64
2022-01-13 13:59:53 GMT 43.366379 5.314445 1,450 315 131 0
2022-01-13 13:59:42 GMT 43.361362 5.320783 1,450 325 131 -64
2022-01-13 13:59:35 GMT 43.357590 5.323515 1,450 343 131 0
2022-01-13 13:59:30 GMT 43.354523 5.324601 1,450 353 132 64
2022-01-13 13:59:24 GMT 43.350979 5.324903 1,450 2 132 64
2022-01-13 13:59:17 GMT 43.346046 5.324445 1,450 3 133 64
2022-01-13 13:59:14 GMT 43.345303 5.324380 1,450 4 133 64
2022-01-13 13:59:11 GMT 43.342834 5.324118 1,450 4 133 0
2022-01-13 13:59:05 GMT 43.339050 5.323642 1,450 4 133 0
2022-01-13 13:58:57 GMT 43.334267 5.323072 1,450 5 133 -64
2022-01-13 13:58:54 GMT 43.332546 5.322876 1,450 5 133 -64
2022-01-13 13:58:50 GMT 43.330078 5.322549 1,450 5 133 -64
2022-01-13 13:58:44 GMT 43.326355 5.322091 1,450 5 133 -64
2022-01-13 13:58:38 GMT 43.323029 5.321662 1,450 5 133 -64
2022-01-13 13:58:34 GMT 43.320210 5.321241 1,450 6 132 -64
2022-01-13 13:58:30 GMT 43.318069 5.320914 1,475 6 132 -64
2022-01-13 13:58:24 GMT 43.313923 5.320129 1,475 11 132 -64
2022-01-13 13:58:17 GMT 43.310154 5.318495 1,475 24 133 0
2022-01-13 13:58:14 GMT 43.308292 5.316860 1,475 40 134 -64
2022-01-13 13:58:11 GMT 43.306477 5.314440 1,475 50 134 -64
2022-01-13 13:58:03 GMT 43.304615 5.310059 1,475 68 134 -64
2022-01-13 13:57:59 GMT 43.303635 5.306135 1,450 73 135 64
2022-01-13 13:57:53 GMT 43.302612 5.301557 1,450 73 135 -64
2022-01-13 13:57:49 GMT 43.301773 5.297634 1,475 74 128 -896
2022-01-13 13:57:43 GMT 43.300827 5.293238 1,500 73 131 -512
2022-01-13 13:57:36 GMT 43.299683 5.287873 1,525 74 128 -896
2022-01-13 13:57:33 GMT 43.299179 5.285318 1,625 74 127 -896
2022-01-13 13:57:28 GMT 43.298374 5.281416 1,700 74 128 -896
2022-01-13 13:57:23 GMT 43.297577 5.277462 1,800 74 129 -896
2022-01-13 13:57:13 GMT 43.296021 5.269477 1,925 75 131 -896
2022-01-13 13:57:03 GMT 43.294281 5.260663 2,100 74 134 -896
2022-01-13 13:56:52 GMT 43.292862 5.252359 2,250 81 135 -896
2022-01-13 13:56:42 GMT 43.293068 5.243748 2,400 106 134 -896
2022-01-13 13:56:31 GMT 43.296432 5.236454 2,550 138 133 -896
2022-01-13 13:56:26 GMT 43.299213 5.233939 2,625 155 132 -896
2022-01-13 13:56:21 GMT 43.302284 5.232697 2,700 170 133 -896
2022-01-13 13:56:11 GMT 43.308338 5.232043 2,850 176 131 -896
2022-01-13 13:56:07 GMT 43.311039 5.231781 3,025 176 130 -896
2022-01-13 13:56:02 GMT 43.314205 5.231519 3,000 176 130 -896
2022-01-13 13:55:57 GMT 43.317089 5.231258 3,075 176 130 -896
2022-01-13 13:55:51 GMT 43.320675 5.230931 3,175 176 130 -896
2022-01-13 13:55:47 GMT 43.322754 5.230770 3,225 176 130 -896
2022-01-13 13:55:41 GMT 43.326679 5.230473 3,300 176 130 -896
2022-01-13 13:55:37 GMT 43.329025 5.230259 3,375 175 133 -768
2022-01-13 13:55:33 GMT 43.331909 5.229939 3,450 176 130 -896
2022-01-13 13:55:30 GMT 43.332870 5.229875 3,475 176 130 -896
2022-01-13 13:55:21 GMT 43.338867 5.229364 3,625 176 131 -832
2022-01-13 13:55:17 GMT 43.341293 5.229173 3,725 175 133 -768
2022-01-13 13:55:11 GMT 43.344955 5.228917 3,750 176 132 -768
2022-01-13 13:55:06 GMT 43.347656 5.228662 3,800 175 133 -768
2022-01-13 13:55:02 GMT 43.350082 5.228406 3,850 175 133 -768
2022-01-13 13:54:59 GMT 43.351959 5.228184 3,875 175 133 -768
2022-01-13 13:54:56 GMT 43.353561 5.228023 3,925 175 133 -768
2022-01-13 13:54:50 GMT 43.357727 5.227576 4,000 175 133 -768
2022-01-13 13:54:43 GMT 43.361893 5.227129 4,100 175 133 -768
2022-01-13 13:54:39 GMT 43.364319 5.226873 4,150 176 133 -832
2022-01-13 13:54:35 GMT 43.366714 5.226615 4,175 175 133 -768
2022-01-13 13:54:32 GMT 43.368156 5.226484 4,225 175 133 -768
2022-01-13 13:54:29 GMT 43.370270 5.226298 4,250 175 133 -768
2022-01-13 13:54:25 GMT 43.372467 5.226043 4,300 175 133 -768
2022-01-13 13:54:22 GMT 43.374535 5.225830 4,350 175 133 -768
2022-01-13 13:54:16 GMT 43.378490 5.225372 4,425 175 134 -768
2022-01-13 13:54:12 GMT 43.380524 5.225149 4,475 174 134 -768
2022-01-13 13:54:06 GMT 43.384552 5.224702 4,550 174 135 -768
2022-01-13 13:54:02 GMT 43.386841 5.224382 4,600 174 136 -768
2022-01-13 13:53:58 GMT 43.389431 5.224064 4,650 174 136 -768
2022-01-13 13:53:55 GMT 43.391556 5.223744 4,675 174 137 -768
2022-01-13 13:53:52 GMT 43.393341 5.223488 4,725 174 137 -768
2022-01-13 13:53:49 GMT 43.395676 5.223169 4,775 174 138 -768
2022-01-13 13:53:45 GMT 43.397812 5.222887 4,800 174 139 -768
2022-01-13 13:53:42 GMT 43.399860 5.222560 4,850 174 139 -768
2022-01-13 13:53:39 GMT 43.402313 5.222274 4,900 174 140 -768
2022-01-13 13:53:35 GMT 43.404003 5.222037 4,925 174 140 -768
2022-01-13 13:53:31 GMT 43.406841 5.221645 4,975 174 140 -768
2022-01-13 13:53:28 GMT 43.408707 5.221449 5,025 174 141 -768
2022-01-13 13:53:24 GMT 43.411823 5.221056 5,075 174 142 -768
2022-01-13 13:53:21 GMT 43.413254 5.220869 5,100 174 142 -768
2022-01-13 13:53:18 GMT 43.415359 5.220614 5,150 174 143 -768
2022-01-13 13:53:11 GMT 43.419785 5.220075 5,225 174 146 -704
2022-01-13 13:53:06 GMT 43.424240 5.219400 5,300 174 147 -768
2022-01-13 13:53:01 GMT 43.426712 5.219081 5,350 174 147 -768
2022-01-13 13:52:55 GMT 43.430630 5.218506 5,425 174 147 -768
2022-01-13 13:52:51 GMT 43.433487 5.218123 5,475 174 146 -768
2022-01-13 13:52:45 GMT 43.437939 5.217525 5,550 174 146 -768
2022-01-13 13:52:41 GMT 43.440536 5.217228 5,600 174 146 -768
2022-01-13 13:52:38 GMT 43.442688 5.216973 5,650 174 146 -768
2022-01-13 13:52:34 GMT 43.445160 5.216654 5,675 174 146 -768
2022-01-13 13:52:30 GMT 43.447437 5.216413 5,725 175 146 -768
2022-01-13 13:52:25 GMT 43.451111 5.215951 5,800 175 146 -768
2022-01-13 13:52:21 GMT 43.454086 5.215632 5,850 175 147 -768
2022-01-13 13:52:17 GMT 43.456654 5.215367 5,900 175 147 -768
2022-01-13 13:52:14 GMT 43.458710 5.215121 5,925 175 147 -768
2022-01-13 13:52:10 GMT 43.461029 5.214909 5,975 175 147 -768
2022-01-13 13:52:07 GMT 43.463684 5.214582 6,025 175 148 -768
2022-01-13 13:52:03 GMT 43.466198 5.214321 6,075 175 148 -768
2022-01-13 13:52:00 GMT 43.468151 5.214124 6,100 175 149 -768
2022-01-13 13:51:54 GMT 43.472076 5.213779 6,175 176 150 -768
2022-01-13 13:51:50 GMT 43.474915 5.213460 6,225 176 151 -768
2022-01-13 13:51:44 GMT 43.479511 5.213078 6,325 176 152 -768
2022-01-13 13:51:40 GMT 43.482071 5.212817 6,350 176 152 -768
2022-01-13 13:51:36 GMT 43.485146 5.212620 6,400 177 152 -704
2022-01-13 13:51:30 GMT 43.489101 5.212359 6,450 178 154 -64
2022-01-13 13:51:25 GMT 43.494221 5.212293 6,450 183 155 0
2022-01-13 13:51:20 GMT 43.496548 5.212490 6,475 186 155 0
2022-01-13 13:51:16 GMT 43.499542 5.212885 6,450 186 155 0
2022-01-13 13:51:12 GMT 43.502106 5.213204 6,450 186 155 64
2022-01-13 13:51:09 GMT 43.503845 5.213396 6,450 186 154 0
2022-01-13 13:51:03 GMT 43.508377 5.213971 6,450 186 154 0
2022-01-13 13:51:00 GMT 43.510796 5.214255 6,450 186 154 0
2022-01-13 13:50:55 GMT 43.514374 5.214737 6,450 186 154 0
2022-01-13 13:50:52 GMT 43.516193 5.214975 6,450 186 154 0
2022-01-13 13:50:49 GMT 43.518860 5.215312 6,450 186 153 0
2022-01-13 13:50:43 GMT 43.522614 5.215823 6,450 186 153 0
2022-01-13 13:50:38 GMT 43.526436 5.216282 6,450 186 153 0
2022-01-13 13:50:33 GMT 43.529709 5.216717 6,450 186 153 0
2022-01-13 13:50:28 GMT 43.533325 5.217165 6,450 186 153 0
2022-01-13 13:50:24 GMT 43.536530 5.217612 6,450 186 153 0
2022-01-13 13:50:18 GMT 43.540310 5.218048 6,450 186 153 0
2022-01-13 13:50:13 GMT 43.543579 5.218442 6,450 186 153 0
2022-01-13 13:50:09 GMT 43.546967 5.218889 6,450 186 153 0
2022-01-13 13:50:03 GMT 43.550903 5.219336 6,450 186 153 0
2022-01-13 13:49:58 GMT 43.554180 5.219748 6,450 185 153 0
2022-01-13 13:49:53 GMT 43.557999 5.220230 6,450 185 152 0
2022-01-13 13:49:48 GMT 43.561256 5.220598 6,450 185 152 0
2022-01-13 13:49:43 GMT 43.565048 5.221061 6,450 185 152 0
2022-01-13 13:49:38 GMT 43.569580 5.221572 6,450 185 152 -64
2022-01-13 13:49:33 GMT 43.572327 5.221891 6,450 185 153 0
2022-01-13 13:49:23 GMT 43.579147 5.222658 6,450 185 153 0
2022-01-13 13:49:13 GMT 43.586197 5.223424 6,450 185 153 64
2022-01-13 13:49:08 GMT 43.590134 5.223871 6,450 185 152 0
2022-01-13 13:49:03 GMT 43.593704 5.224261 6,450 185 152 0
2022-01-13 13:48:58 GMT 43.597103 5.224588 6,450 185 152 0
2022-01-13 13:48:53 GMT 43.600452 5.224980 6,450 185 152 0
2022-01-13 13:48:48 GMT 43.604084 5.225307 6,450 185 152 0
2022-01-13 13:48:43 GMT 43.607807 5.225699 6,450 185 152 0
2022-01-13 13:48:38 GMT 43.611282 5.226107 6,450 185 152 -64
2022-01-13 13:48:31 GMT 43.615768 5.226554 6,450 185 152 -64
2022-01-13 13:48:25 GMT 43.620026 5.227001 6,450 185 152 -64
2022-01-13 13:48:22 GMT 43.622101 5.227269 6,450 185 152 -64
2022-01-13 13:48:17 GMT 43.625610 5.227640 6,475 185 153 64
2022-01-13 13:48:13 GMT 43.629177 5.227923 6,450 183 154 64
2022-01-13 13:48:02 GMT 43.636391 5.227596 6,450 167 155 -128
2022-01-13 13:47:52 GMT 43.642956 5.223934 6,450 153 152 0
2022-01-13 13:47:42 GMT 43.649414 5.219592 6,450 153 152 0
2022-01-13 13:47:32 GMT 43.655914 5.215248 6,450 154 151 -64
2022-01-13 13:47:22 GMT 43.662273 5.211574 6,450 161 151 64
2022-01-13 13:47:11 GMT 43.669445 5.209874 6,450 174 152 64
2022-01-13 13:47:02 GMT 43.676147 5.208370 6,450 168 151 64
2022-01-13 13:46:54 GMT 43.681686 5.206866 6,450 168 151 0
2022-01-13 13:46:51 GMT 43.683472 5.206370 6,450 168 151 0
2022-01-13 13:46:42 GMT 43.690338 5.204454 6,450 168 151 0
2022-01-13 13:46:31 GMT 43.697205 5.202537 6,450 168 151 0
2022-01-13 13:46:21 GMT 43.703800 5.200653 6,450 168 151 -64
2022-01-13 13:46:11 GMT 43.710846 5.198641 6,450 168 150 0
2022-01-13 13:46:04 GMT 43.715298 5.197383 6,450 168 150 0
2022-01-13 13:46:01 GMT 43.717941 5.196597 6,450 168 150 0
2022-01-13 13:45:50 GMT 43.725353 5.194571 6,450 168 150 0
2022-01-13 13:45:37 GMT 43.734238 5.192062 6,450 168 150 0
2022-01-13 13:45:30 GMT 43.738945 5.190713 6,450 168 150 0
2022-01-13 13:45:23 GMT 43.744392 5.189209 6,450 168 150 64
2022-01-13 13:45:19 GMT 43.746487 5.188620 6,450 168 150 0
2022-01-13 13:45:14 GMT 43.749840 5.187705 6,450 168 150 0
2022-01-13 13:45:10 GMT 43.752541 5.186920 6,450 168 150 0
2022-01-13 13:45:01 GMT 43.759506 5.184972 6,450 168 150 -64
2022-01-13 13:44:47 GMT 43.767883 5.182609 6,450 168 151 0
2022-01-13 13:44:41 GMT 43.772278 5.181395 6,450 168 150 0
2022-01-13 13:44:32 GMT 43.778515 5.179661 6,450 168 151 64
2022-01-13 13:44:12 GMT 43.791733 5.175902 6,450 168 150 0
2022-01-13 13:44:03 GMT 43.797836 5.174234 6,450 168 150 0
2022-01-13 13:43:46 GMT 43.810032 5.170702 6,450 168 149 0
2022-01-13 13:43:40 GMT 43.813385 5.169770 6,450 168 149 0
2022-01-13 13:43:22 GMT 43.825626 5.166321 6,450 168 149 0
2022-01-13 13:43:10 GMT 43.834053 5.163967 6,450 168 149 -64
2022-01-13 13:43:03 GMT 43.838791 5.162616 6,450 168 149 0
2022-01-13 13:42:50 GMT 43.847599 5.160174 6,450 168 149 0
2022-01-13 13:42:41 GMT 43.854492 5.158145 6,450 168 149 0
2022-01-13 13:42:31 GMT 43.861145 5.156315 6,450 168 149 0
2022-01-13 13:42:12 GMT 43.873444 5.152843 6,450 168 150 0
2022-01-13 13:41:22 GMT 43.907234 5.143302 6,450 168 149 0
2022-01-13 13:39:52 GMT 43.967834 5.126336 6,350 167 147 -64
2022-01-13 13:38:37 GMT 44.018261 5.131073 6,350 188 147 -64
2022-01-13 13:38:32 GMT 44.022030 5.131792 6,350 188 147 0
2022-01-13 13:38:26 GMT 44.026474 5.132659 6,350 188 147 0
2022-01-13 13:38:16 GMT 44.032597 5.133754 6,350 188 147 0
2022-01-13 13:38:05 GMT 44.040092 5.135193 6,350 188 147 0
2022-01-13 13:37:45 GMT 44.054214 5.137833 6,350 188 146 0
2022-01-13 13:37:34 GMT 44.060898 5.139110 6,350 188 146 0
2022-01-13 13:33:50 GMT 44.211124 5.167460 6,350 188 146 0
2022-01-13 13:33:36 GMT 44.219650 5.169067 6,350 188 146 -64
2022-01-13 13:33:28 GMT 44.225090 5.170139 6,350 188 146 -64
2022-01-13 13:33:12 GMT 44.235844 5.172149 6,350 188 146 -64
2022-01-13 13:33:05 GMT 44.240871 5.173087 6,350 188 145 0
2022-01-13 13:32:57 GMT 44.245712 5.174025 6,350 188 145 0
2022-01-13 13:32:47 GMT 44.252090 5.175297 6,350 189 145 64
2022-01-13 13:32:37 GMT 44.259308 5.176771 6,350 188 145 0
2022-01-13 13:32:26 GMT 44.267315 5.178178 6,350 189 145 0
2022-01-13 13:32:17 GMT 44.272621 5.179384 6,350 192 144 64
2022-01-13 13:32:04 GMT 44.281002 5.181795 6,350 193 144 -64
2022-01-13 13:31:56 GMT 44.285980 5.183202 6,350 193 144 -64
2022-01-13 13:31:46 GMT 44.292732 5.185145 6,350 193 143 -64
2022-01-13 13:31:36 GMT 44.299347 5.187116 6,350 193 143 0
2022-01-13 13:31:25 GMT 44.306351 5.189144 6,350 193 143 0
2022-01-13 13:31:15 GMT 44.312851 5.191040 6,350 193 143 -64
2022-01-13 13:31:05 GMT 44.319351 5.192936 6,350 192 143 0
2022-01-13 13:30:55 GMT 44.325970 5.194858 6,350 192 143 0
2022-01-13 13:30:44 GMT 44.332855 5.196860 6,350 193 143 0
2022-01-13 13:30:33 GMT 44.340729 5.199146 6,350 192 141 0
2022-01-13 13:30:15 GMT 44.351528 5.202294 6,350 192 142 0
2022-01-13 13:30:11 GMT 44.354004 5.203073 6,350 192 142 0
2022-01-13 13:30:01 GMT 44.360371 5.204907 6,350 192 142 0
2022-01-13 13:29:54 GMT 44.365818 5.206448 6,350 193 143 0
2022-01-13 13:29:43 GMT 44.372406 5.208435 6,350 193 143 0
2022-01-13 13:29:33 GMT 44.379135 5.210397 6,350 192 142 64
2022-01-13 13:29:23 GMT 44.385590 5.212228 6,350 192 142 0
2022-01-13 13:29:13 GMT 44.392448 5.214219 6,350 192 142 0
2022-01-13 13:29:02 GMT 44.398773 5.216086 6,350 192 142 0
2022-01-13 13:28:52 GMT 44.405457 5.218048 6,350 193 143 0
2022-01-13 13:28:41 GMT 44.412231 5.220010 6,350 192 142 0
2022-01-13 13:28:32 GMT 44.418961 5.221972 6,350 193 143 0
2022-01-13 13:28:21 GMT 44.425591 5.223932 6,350 192 142 0
2022-01-13 13:28:10 GMT 44.432297 5.225875 6,350 192 142 0
2022-01-13 13:28:00 GMT 44.439091 5.227817 6,350 192 142 0
2022-01-13 13:27:50 GMT 44.445419 5.229558 6,350 192 141 -64
2022-01-13 13:27:39 GMT 44.452221 5.231569 6,350 193 142 64
2022-01-13 13:27:30 GMT 44.458645 5.233445 6,350 189 143 0
2022-01-13 13:27:20 GMT 44.465424 5.234004 6,350 176 143 -64
2022-01-13 13:27:09 GMT 44.472424 5.233244 6,350 175 142 0
2022-01-13 13:26:59 GMT 44.479065 5.232566 6,350 175 142 0
2022-01-13 13:26:48 GMT 44.485878 5.231770 6,350 175 143 0
2022-01-13 13:26:39 GMT 44.492722 5.231100 6,350 175 143 64
2022-01-13 13:26:28 GMT 44.499378 5.230363 6,350 175 143 0
2022-01-13 13:26:17 GMT 44.506313 5.229559 6,350 175 144 0
2022-01-13 13:26:07 GMT 44.513077 5.228838 6,350 175 143 0
2022-01-13 13:25:57 GMT 44.520000 5.228085 6,350 175 142 0
2022-01-13 13:25:46 GMT 44.526764 5.227334 6,350 175 142 -64
2022-01-13 13:25:37 GMT 44.533173 5.226612 6,350 175 141 0
2022-01-13 13:25:26 GMT 44.540085 5.225830 6,350 175 141 0
2022-01-13 13:25:16 GMT 44.546631 5.225111 6,350 175 141 0
2022-01-13 13:25:06 GMT 44.553314 5.224391 6,350 175 140 -64
2022-01-13 13:24:55 GMT 44.560223 5.223664 6,350 175 140 0
2022-01-13 13:24:46 GMT 44.566635 5.222887 6,350 175 141 0
2022-01-13 13:24:35 GMT 44.573410 5.222168 6,350 175 141 0
2022-01-13 13:24:25 GMT 44.580185 5.221383 6,350 175 142 -64
2022-01-13 13:24:14 GMT 44.586777 5.220729 6,350 175 142 0
2022-01-13 13:24:05 GMT 44.594017 5.219913 6,350 175 142 0
2022-01-13 13:23:54 GMT 44.600464 5.219094 6,350 175 142 -64
2022-01-13 13:23:44 GMT 44.606915 5.218439 6,350 176 142 64
2022-01-13 13:23:33 GMT 44.613831 5.217787 6,350 175 142 0
2022-01-13 13:23:24 GMT 44.620422 5.216936 6,350 175 143 -64
2022-01-13 13:23:13 GMT 44.627243 5.216217 6,350 175 142 0
2022-01-13 13:23:02 GMT 44.634064 5.215498 6,350 175 142 0
2022-01-13 13:22:53 GMT 44.640610 5.214778 6,350 175 142 0
2022-01-13 13:22:43 GMT 44.647320 5.214018 6,350 175 142 0
2022-01-13 13:22:32 GMT 44.654163 5.213214 6,350 175 142 -64
2022-01-13 13:22:21 GMT 44.661007 5.212544 6,350 175 142 0
2022-01-13 13:22:11 GMT 44.667709 5.211836 6,350 175 143 64
2022-01-13 13:22:02 GMT 44.674461 5.211003 6,350 175 143 -64
2022-01-13 13:21:50 GMT 44.681629 5.210199 6,350 175 143 0
2022-01-13 13:21:41 GMT 44.687962 5.209529 6,350 175 143 0
2022-01-13 13:21:30 GMT 44.694851 5.208792 6,350 175 143 64
2022-01-13 13:21:21 GMT 44.701584 5.208043 6,350 175 143 0
2022-01-13 13:21:13 GMT 44.706207 5.207520 6,350 175 143 0
2022-01-13 13:21:10 GMT 44.708351 5.207319 6,350 175 144 0
2022-01-13 13:20:59 GMT 44.715240 5.206515 6,350 175 144 0
2022-01-13 13:20:53 GMT 44.720444 5.205950 6,350 175 143 0
2022-01-13 13:20:50 GMT 44.721954 5.205754 6,350 175 143 -64
2022-01-13 13:20:39 GMT 44.728867 5.205035 6,350 175 143 0
2022-01-13 13:20:29 GMT 44.735630 5.204304 6,350 175 143 0
2022-01-13 13:20:24 GMT 44.738663 5.203988 6,350 175 143 0
2022-01-13 13:20:19 GMT 44.742142 5.203596 6,350 175 143 0
2022-01-13 13:20:16 GMT 44.744335 5.203299 6,350 175 143 64
2022-01-13 13:20:09 GMT 44.749641 5.202696 6,350 175 142 64
2022-01-13 13:20:06 GMT 44.751225 5.202562 6,350 175 142 0
2022-01-13 13:19:58 GMT 44.755829 5.202026 6,350 175 142 0
2022-01-13 13:19:55 GMT 44.757790 5.201825 6,350 175 142 0
2022-01-13 13:19:48 GMT 44.762722 5.201222 6,350 175 142 0
2022-01-13 13:19:45 GMT 44.764435 5.201045 6,350 176 142 0
2022-01-13 13:19:37 GMT 44.769333 5.200553 6,350 175 142 64
2022-01-13 13:19:28 GMT 44.776062 5.199934 6,350 176 142 0
2022-01-13 13:19:18 GMT 44.782230 5.199347 6,350 175 142 64
2022-01-13 13:19:08 GMT 44.788925 5.198626 6,350 175 141 64
2022-01-13 13:19:05 GMT 44.791168 5.198409 6,350 175 138 0
2022-01-13 13:18:56 GMT 44.796288 5.197806 6,350 174 136 0
2022-01-13 13:18:50 GMT 44.800369 5.197253 6,350 174 128 -64
2022-01-13 13:18:47 GMT 44.802567 5.196926 6,350 174 129 -64
2022-01-13 13:18:36 GMT 44.808243 5.196075 6,350 174 117 -64
2022-01-13 13:18:33 GMT 44.810394 5.195814 6,350 175 107 704
2022-01-13 13:18:25 GMT 44.814056 5.195356 6,325 175 108 384
2022-01-13 13:18:15 GMT 44.818630 5.194791 6,225 175 104 704
2022-01-13 13:18:06 GMT 44.823669 5.194244 6,100 176 110 704
2022-01-13 13:18:02 GMT 44.825912 5.194048 6,050 175 112 704
2022-01-13 13:17:55 GMT 44.828968 5.193787 5,975 176 117 768
2022-01-13 13:17:50 GMT 44.832226 5.193452 5,900 176 133 768
2022-01-13 13:17:45 GMT 44.834831 5.193251 5,850 176 129 768
2022-01-13 13:17:35 GMT 44.841110 5.192610 5,725 175 138 640
2022-01-13 13:17:25 GMT 44.847729 5.191911 5,625 175 140 512
2022-01-13 13:17:20 GMT 44.850845 5.191509 5,600 175 140 512
2022-01-13 13:17:14 GMT 44.854431 5.191174 5,550 175 140 512
2022-01-13 13:17:11 GMT 44.857269 5.190839 5,500 175 140 512
2022-01-13 13:17:04 GMT 44.860977 5.190451 5,450 175 139 576
2022-01-13 13:17:00 GMT 44.863461 5.190169 5,425 174 139 640
2022-01-13 13:16:54 GMT 44.867603 5.189633 5,350 175 139 320
2022-01-13 13:16:49 GMT 44.870399 5.189298 5,350 175 138 0
2022-01-13 13:16:43 GMT 44.874390 5.188882 5,350 175 138 0
2022-01-13 13:16:39 GMT 44.877457 5.188490 5,350 175 139 0
2022-01-13 13:16:32 GMT 44.881027 5.188097 5,350 175 139 0
2022-01-13 13:16:28 GMT 44.883820 5.187770 5,350 175 139 0
2022-01-13 13:16:25 GMT 44.886040 5.187557 5,350 175 139 0
2022-01-13 13:16:18 GMT 44.890503 5.187051 5,350 175 139 0
2022-01-13 13:16:13 GMT 44.894119 5.186659 5,350 175 139 0
2022-01-13 13:16:09 GMT 44.896683 5.186397 5,350 175 139 0
2022-01-13 13:16:05 GMT 44.899246 5.186135 5,350 175 139 0
2022-01-13 13:16:02 GMT 44.900574 5.186005 5,350 175 140 0
2022-01-13 13:15:58 GMT 44.903545 5.185614 5,350 175 140 0
2022-01-13 13:15:54 GMT 44.905827 5.185346 5,350 175 141 -64
2022-01-13 13:15:50 GMT 44.908035 5.185089 5,350 175 141 0
2022-01-13 13:15:44 GMT 44.912476 5.184631 5,350 175 141 -64
2022-01-13 13:15:41 GMT 44.914948 5.184341 5,350 175 141 64
2022-01-13 13:15:37 GMT 44.917236 5.184108 5,350 175 141 0
2022-01-13 13:15:31 GMT 44.920807 5.183716 5,350 175 141 0
2022-01-13 13:15:26 GMT 44.924122 5.183336 5,350 175 142 -64
2022-01-13 13:15:21 GMT 44.927517 5.182934 5,350 175 142 0
2022-01-13 13:15:17 GMT 44.930328 5.182604 5,350 175 142 -64
2022-01-13 13:15:14 GMT 44.932983 5.182343 5,350 175 142 0
2022-01-13 13:15:10 GMT 44.934265 5.182212 5,350 175 142 0
2022-01-13 13:15:06 GMT 44.938087 5.181795 5,350 175 142 64
2022-01-13 13:15:01 GMT 44.940857 5.181492 5,350 175 141 0
2022-01-13 13:14:53 GMT 44.945755 5.180904 5,350 175 141 0
2022-01-13 13:14:49 GMT 44.948280 5.180590 5,350 175 140 -64
2022-01-13 13:14:42 GMT 44.952610 5.180121 5,350 175 140 64
2022-01-13 13:14:39 GMT 44.954590 5.179923 5,350 175 140 64
2022-01-13 13:14:36 GMT 44.957382 5.179596 5,350 175 139 64
2022-01-13 13:14:33 GMT 44.958984 5.179465 5,350 175 139 0
2022-01-13 13:14:29 GMT 44.960941 5.179250 5,350 175 139 0
2022-01-13 13:14:23 GMT 44.965622 5.178680 5,350 175 139 0
2022-01-13 13:14:19 GMT 44.968506 5.178353 5,350 175 139 0
2022-01-13 13:14:14 GMT 44.971298 5.178092 5,350 175 140 0
2022-01-13 13:14:11 GMT 44.972534 5.177910 5,350 175 140 -64
2022-01-13 13:14:05 GMT 44.977020 5.177438 5,350 175 140 0
2022-01-13 13:14:01 GMT 44.979034 5.177176 5,350 175 140 0
2022-01-13 13:13:57 GMT 44.981644 5.176915 5,350 175 140 0
2022-01-13 13:13:52 GMT 44.985428 5.176503 5,350 175 140 -64
2022-01-13 13:13:44 GMT 44.990479 5.175934 5,350 175 140 -64
2022-01-13 13:13:40 GMT 44.992493 5.175738 5,350 175 140 0
2022-01-13 13:13:34 GMT 44.997349 5.175163 5,350 175 140 0
2022-01-13 13:13:31 GMT 44.999313 5.174953 5,350 175 140 0
2022-01-13 13:13:28 GMT 45.000931 5.174829 5,350 175 140 0
2022-01-13 13:13:20 GMT 45.005680 5.174293 5,350 175 141 0
2022-01-13 13:13:17 GMT 45.007496 5.174092 5,350 175 141 0
2022-01-13 13:13:13 GMT 45.010757 5.173710 5,350 175 140 0
2022-01-13 13:13:07 GMT 45.013966 5.173355 5,350 175 140 0
2022-01-13 13:13:02 GMT 45.017551 5.172886 5,350 175 140 0
2022-01-13 13:12:58 GMT 45.020599 5.172599 5,350 175 140 0
2022-01-13 13:12:51 GMT 45.025223 5.172076 5,350 175 139 -64
2022-01-13 13:12:46 GMT 45.027931 5.171747 5,350 175 139 0
2022-01-13 13:12:40 GMT 45.031796 5.171345 5,350 175 140 0
2022-01-13 13:12:36 GMT 45.034077 5.171077 5,350 175 140 0
2022-01-13 13:12:29 GMT 45.039185 5.170506 5,350 175 140 0
2022-01-13 13:12:17 GMT 45.046921 5.169656 5,350 175 139 -64
2022-01-13 13:12:08 GMT 45.052696 5.169000 5,350 175 139 0
2022-01-13 13:12:04 GMT 45.054745 5.168732 5,350 175 139 -64
2022-01-13 13:11:58 GMT 45.059784 5.168217 5,350 175 139 0
2022-01-13 13:11:49 GMT 45.064754 5.167661 5,350 175 139 0
2022-01-13 13:11:42 GMT 45.068939 5.167171 5,350 175 139 0
2022-01-13 13:11:36 GMT 45.073654 5.166713 5,350 175 140 0
2022-01-13 13:11:28 GMT 45.078049 5.166190 5,350 175 140 0
2022-01-13 13:11:13 GMT 45.088078 5.165182 5,350 175 141 0
2022-01-13 13:11:04 GMT 45.093384 5.164621 5,350 174 140 0
2022-01-13 13:10:58 GMT 45.097961 5.164032 5,350 176 139 0
2022-01-13 13:10:53 GMT 45.101250 5.163976 5,350 184 139 0
2022-01-13 13:10:41 GMT 45.108002 5.166120 5,350 200 138 0
2022-01-13 13:10:32 GMT 45.113773 5.169000 5,350 200 138 64
2022-01-13 13:10:22 GMT 45.119888 5.172010 5,350 200 137 -64
2022-01-13 13:10:16 GMT 45.124008 5.174037 5,350 200 137 64
2022-01-13 13:09:53 GMT 45.137421 5.180773 5,350 200 137 0
2022-01-13 13:09:45 GMT 45.141769 5.182866 5,350 200 138 0
2022-01-13 13:09:36 GMT 45.147243 5.185614 5,350 200 137 0
2022-01-13 13:09:10 GMT 45.162842 5.193385 5,350 200 137 0
2022-01-13 13:09:05 GMT 45.165848 5.194898 5,350 200 137 0
2022-01-13 13:08:59 GMT 45.169693 5.196795 5,350 200 137 0
2022-01-13 13:08:55 GMT 45.172348 5.198103 5,350 200 137 0
2022-01-13 13:08:46 GMT 45.177734 5.200754 5,350 200 137 -64
2022-01-13 13:08:37 GMT 45.182529 5.203165 5,350 200 137 64
2022-01-13 13:08:34 GMT 45.184387 5.204054 5,350 200 137 0
2022-01-13 13:08:27 GMT 45.188965 5.206342 5,350 200 137 0
2022-01-13 13:08:24 GMT 45.191071 5.207389 5,350 200 137 64
2022-01-13 13:08:18 GMT 45.194077 5.208926 5,350 200 137 0
2022-01-13 13:08:15 GMT 45.195923 5.209808 5,350 200 137 0
2022-01-13 13:08:09 GMT 45.200405 5.212008 5,350 200 137 0
2022-01-13 13:08:04 GMT 45.202423 5.213078 5,350 200 137 0
2022-01-13 13:07:58 GMT 45.206223 5.214975 5,350 200 137 0
2022-01-13 13:07:55 GMT 45.208466 5.216086 5,350 200 138 0
2022-01-13 13:07:48 GMT 45.212418 5.218037 5,350 200 138 0
2022-01-13 13:07:41 GMT 45.216328 5.219980 5,350 200 138 0
2022-01-13 13:07:38 GMT 45.218472 5.221051 5,350 200 139 0
2022-01-13 13:07:33 GMT 45.222332 5.222994 5,350 200 138 0
2022-01-13 13:07:28 GMT 45.224670 5.224130 5,350 200 137 0
2022-01-13 13:07:18 GMT 45.230438 5.227007 5,350 200 137 -64
2022-01-13 13:07:07 GMT 45.237167 5.230408 5,350 200 137 0
2022-01-13 13:06:58 GMT 45.242661 5.233154 5,350 200 137 0
2022-01-13 13:06:47 GMT 45.248840 5.236228 5,350 200 136 0
2022-01-13 13:06:38 GMT 45.254967 5.239273 5,350 200 136 -64
2022-01-13 13:06:27 GMT 45.260738 5.242153 5,350 200 136 -64
2022-01-13 13:06:16 GMT 45.267395 5.245436 5,350 200 136 0
2022-01-13 13:06:07 GMT 45.273056 5.248260 5,350 200 136 0
2022-01-13 13:05:57 GMT 45.279079 5.251264 5,350 200 136 0
2022-01-13 13:05:46 GMT 45.285271 5.254412 5,350 200 136 0
2022-01-13 13:05:36 GMT 45.291229 5.257360 5,350 200 136 0
2022-01-13 13:05:27 GMT 45.296860 5.260162 5,350 200 135 0
2022-01-13 13:05:17 GMT 45.302914 5.263188 5,350 200 136 0
2022-01-13 13:05:06 GMT 45.308990 5.266244 5,350 200 136 64
2022-01-13 13:04:57 GMT 45.315018 5.269284 5,350 200 135 0
2022-01-13 13:04:46 GMT 45.320885 5.272165 5,350 200 135 0
2022-01-13 13:04:36 GMT 45.326843 5.275179 5,350 200 135 0
2022-01-13 13:04:26 GMT 45.332989 5.278194 5,350 200 135 0
2022-01-13 13:04:16 GMT 45.338791 5.281154 5,350 200 135 0
2022-01-13 13:04:06 GMT 45.344810 5.284156 5,350 200 136 0
2022-01-13 13:03:56 GMT 45.350677 5.287103 5,350 200 135 0
2022-01-13 13:03:46 GMT 45.356636 5.290118 5,350 200 135 0
2022-01-13 13:03:35 GMT 45.362869 5.293187 5,350 200 135 0
2022-01-13 13:03:25 GMT 45.368694 5.296147 5,350 200 135 0
2022-01-13 13:03:14 GMT 45.375862 5.299698 5,350 200 135 0
2022-01-13 13:03:04 GMT 45.381214 5.302444 5,350 200 135 0
2022-01-13 13:02:55 GMT 45.386757 5.305191 5,350 200 136 0
2022-01-13 13:02:44 GMT 45.393036 5.308293 5,350 200 136 0
2022-01-13 13:02:38 GMT 45.396996 5.310282 5,350 200 136 0
2022-01-13 13:02:34 GMT 45.399033 5.311301 5,350 200 136 0
2022-01-13 13:02:29 GMT 45.402210 5.312961 5,350 200 136 0
2022-01-13 13:02:25 GMT 45.404709 5.314178 5,350 200 136 0
2022-01-13 13:02:19 GMT 45.407936 5.315775 5,350 200 137 -64
2022-01-13 13:02:15 GMT 45.410660 5.317121 5,350 200 137 -64
2022-01-13 13:02:07 GMT 45.415386 5.319526 5,350 200 138 0
2022-01-13 13:02:04 GMT 45.416931 5.320326 5,350 200 138 0
2022-01-13 13:01:57 GMT 45.421577 5.322742 5,350 200 138 0
2022-01-13 13:01:54 GMT 45.423157 5.323530 5,350 201 138 0
2022-01-13 13:01:47 GMT 45.427734 5.325884 5,350 200 138 0
2022-01-13 13:01:44 GMT 45.428970 5.326538 5,350 200 137 0
2022-01-13 13:01:38 GMT 45.432468 5.328235 5,350 199 137 -64
2022-01-13 13:01:35 GMT 45.435078 5.329508 5,350 201 136 0
2022-01-13 13:01:29 GMT 45.438103 5.331250 5,350 210 137 -64
2022-01-13 13:01:24 GMT 45.440781 5.333535 5,350 217 137 -64
2022-01-13 13:01:19 GMT 45.443272 5.336542 5,350 227 138 64
2022-01-13 13:01:13 GMT 45.445786 5.341164 5,350 237 140 64
2022-01-13 13:01:08 GMT 45.447132 5.344313 5,350 238 140 0
2022-01-13 13:01:04 GMT 45.448765 5.347997 5,350 238 140 0
2022-01-13 13:00:59 GMT 45.450531 5.351977 5,350 238 140 0
2022-01-13 13:00:54 GMT 45.452255 5.355835 5,350 238 140 64
2022-01-13 13:00:48 GMT 45.454071 5.359921 5,350 239 140 0
2022-01-13 13:00:44 GMT 45.455700 5.363673 5,350 239 140 0
2022-01-13 13:00:33 GMT 45.459183 5.371595 5,350 238 139 0
2022-01-13 13:00:22 GMT 45.463196 5.380688 5,350 238 139 0
2022-01-13 13:00:13 GMT 45.466080 5.387186 5,350 238 139 0
2022-01-13 13:00:04 GMT 45.469524 5.394957 5,350 238 138 64
2022-01-13 12:59:52 GMT 45.473251 5.403197 5,350 237 137 -64
2022-01-13 12:59:43 GMT 45.476624 5.410570 5,350 239 137 -64
2022-01-13 12:59:33 GMT 45.479874 5.418091 5,350 237 138 0
2022-01-13 12:59:23 GMT 45.484131 5.425350 5,350 223 138 0
2022-01-13 12:59:13 GMT 45.489357 5.430797 5,350 210 137 0
2022-01-13 12:59:03 GMT 45.495117 5.434178 5,350 194 138 64
2022-01-13 12:58:54 GMT 45.500439 5.435419 5,350 188 137 0
2022-01-13 12:58:51 GMT 45.503044 5.435419 5,350 176 137 -64
2022-01-13 12:58:43 GMT 45.507793 5.434615 5,350 170 136 0
2022-01-13 12:58:40 GMT 45.509354 5.434243 5,350 170 136 0
2022-01-13 12:58:30 GMT 45.515800 5.432672 5,350 170 136 0
2022-01-13 12:58:22 GMT 45.520615 5.431497 5,350 170 135 0
2022-01-13 12:58:19 GMT 45.522583 5.431039 5,350 170 135 0
2022-01-13 12:58:13 GMT 45.526566 5.430123 5,350 170 134 64
2022-01-13 12:58:10 GMT 45.528416 5.429658 5,350 170 134 0
2022-01-13 12:58:02 GMT 45.532837 5.428586 5,350 170 134 0
2022-01-13 12:57:57 GMT 45.535816 5.427849 5,350 170 134 -64
2022-01-13 12:57:52 GMT 45.539154 5.427115 5,350 170 134 0
2022-01-13 12:57:48 GMT 45.541496 5.426576 5,350 170 134 0
2022-01-13 12:57:41 GMT 45.546021 5.425480 5,350 170 135 -64
2022-01-13 12:57:38 GMT 45.547874 5.425049 5,350 170 135 0
2022-01-13 12:57:32 GMT 45.551598 5.424156 5,350 170 135 0
2022-01-13 12:57:27 GMT 45.554672 5.423361 5,350 170 135 -64
2022-01-13 12:57:19 GMT 45.560257 5.422096 5,350 170 135 0
2022-01-13 12:57:11 GMT 45.564213 5.421135 5,350 170 135 0
2022-01-13 12:57:08 GMT 45.566448 5.420586 5,350 170 135 -64
2022-01-13 12:57:01 GMT 45.570404 5.419624 5,350 170 135 0
2022-01-13 12:56:58 GMT 45.572594 5.419144 5,350 170 135 0
2022-01-13 12:56:52 GMT 45.576595 5.418182 5,350 170 134 0
2022-01-13 12:56:47 GMT 45.579117 5.417533 5,350 170 134 0
2022-01-13 12:56:41 GMT 45.583099 5.416595 5,350 170 134 0
2022-01-13 12:56:37 GMT 45.585209 5.416054 5,350 170 134 0
2022-01-13 12:56:31 GMT 45.588886 5.415230 5,350 171 135 0
2022-01-13 12:56:27 GMT 45.591476 5.414652 5,350 170 135 0
2022-01-13 12:56:21 GMT 45.595459 5.413714 5,350 170 135 0
2022-01-13 12:56:17 GMT 45.597778 5.413170 5,350 170 135 0
2022-01-13 12:56:11 GMT 45.601547 5.412277 5,350 170 136 -64
2022-01-13 12:56:06 GMT 45.604385 5.411570 5,350 170 136 -64
2022-01-13 12:56:01 GMT 45.607784 5.410767 5,350 170 137 0
2022-01-13 12:55:56 GMT 45.610657 5.410030 5,350 170 137 0
2022-01-13 12:55:51 GMT 45.614182 5.409159 5,350 170 137 0
2022-01-13 12:55:40 GMT 45.620682 5.407618 5,350 170 136 64
2022-01-13 12:55:30 GMT 45.627010 5.406097 5,350 170 135 64
2022-01-13 12:55:21 GMT 45.633018 5.404724 5,350 170 135 0
2022-01-13 12:55:10 GMT 45.639442 5.403145 5,350 170 136 0
2022-01-13 12:55:00 GMT 45.645813 5.401656 5,350 170 137 0
2022-01-13 12:54:50 GMT 45.652130 5.400115 5,350 170 137 -64
2022-01-13 12:54:40 GMT 45.658447 5.398641 5,350 170 138 0
2022-01-13 12:54:30 GMT 45.664906 5.397102 5,350 170 138 64
2022-01-13 12:54:19 GMT 45.671425 5.395523 5,350 170 137 0
2022-01-13 12:54:10 GMT 45.677521 5.394012 5,350 170 138 0
2022-01-13 12:53:59 GMT 45.683990 5.392545 5,350 170 137 0
2022-01-13 12:53:49 GMT 45.690536 5.390938 5,350 170 138 0
2022-01-13 12:53:39 GMT 45.696701 5.389481 5,350 170 138 0
2022-01-13 12:53:29 GMT 45.703171 5.387923 5,350 170 138 0
2022-01-13 12:53:18 GMT 45.709991 5.386248 5,350 170 137 0
2022-01-13 12:53:12 GMT 45.714066 5.385292 5,350 170 138 64
2022-01-13 12:53:09 GMT 45.715759 5.384842 5,350 170 137 0
2022-01-13 12:52:59 GMT 45.722260 5.383368 5,350 170 137 0
2022-01-13 12:52:48 GMT 45.728729 5.381859 5,350 170 137 0
2022-01-13 12:52:39 GMT 45.734966 5.380348 5,350 170 138 0
2022-01-13 12:52:29 GMT 45.741344 5.378769 5,350 170 138 -64
2022-01-13 12:52:18 GMT 45.747677 5.377258 5,350 170 138 0
2022-01-13 12:52:09 GMT 45.754074 5.375731 5,350 170 137 0
2022-01-13 12:52:02 GMT 45.758011 5.374786 5,350 170 137 0
2022-01-13 12:51:58 GMT 45.760475 5.374168 5,350 170 136 0
2022-01-13 12:51:51 GMT 45.765038 5.373070 5,350 170 136 0
2022-01-13 12:51:48 GMT 45.766846 5.372649 5,350 170 136 64
2022-01-13 12:51:38 GMT 45.773117 5.371109 5,350 170 135 0
2022-01-13 12:51:32 GMT 45.776726 5.370255 5,350 170 135 0
2022-01-13 12:51:28 GMT 45.779190 5.369637 5,350 170 134 0
2022-01-13 12:51:18 GMT 45.785706 5.368094 5,350 170 135 0
2022-01-13 12:51:07 GMT 45.792274 5.366547 5,350 170 135 -64
2022-01-13 12:50:57 GMT 45.798111 5.365147 5,350 170 135 0
2022-01-13 12:50:47 GMT 45.804424 5.363594 5,350 170 135 0
2022-01-13 12:50:40 GMT 45.809124 5.362495 5,350 170 135 0
2022-01-13 12:50:37 GMT 45.810745 5.362065 5,350 170 135 -64
2022-01-13 12:50:27 GMT 45.816807 5.360641 5,350 170 135 0
2022-01-13 12:50:17 GMT 45.823425 5.359050 5,350 170 136 -64
2022-01-13 12:50:07 GMT 45.829376 5.357577 5,350 170 137 0
2022-01-13 12:49:57 GMT 45.835739 5.356103 5,350 171 138 64
2022-01-13 12:49:46 GMT 45.842834 5.354428 5,350 170 139 0
2022-01-13 12:49:36 GMT 45.849018 5.352882 5,350 170 141 0
2022-01-13 12:49:26 GMT 45.855259 5.351372 5,350 170 140 0
2022-01-13 12:49:17 GMT 45.861237 5.349940 5,350 170 139 0
2022-01-13 12:49:13 GMT 45.863686 5.349380 5,350 170 140 0
2022-01-13 12:49:06 GMT 45.868103 5.348332 5,350 170 140 0
2022-01-13 12:48:56 GMT 45.874649 5.346724 5,350 170 143 -64
2022-01-13 12:48:47 GMT 45.881279 5.345123 5,350 170 144 64
2022-01-13 12:48:36 GMT 45.887890 5.343475 5,350 170 144 -64
2022-01-13 12:48:26 GMT 45.894562 5.341901 5,350 170 144 0
2022-01-13 12:48:17 GMT 45.900284 5.340494 5,350 170 144 64
2022-01-13 12:48:06 GMT 45.907303 5.338875 5,350 170 143 0
2022-01-13 12:48:01 GMT 45.910858 5.338016 5,350 170 143 0
2022-01-13 12:47:57 GMT 45.913696 5.337346 5,350 170 144 0
2022-01-13 12:47:47 GMT 45.920338 5.335716 5,350 170 144 0
2022-01-13 12:47:37 GMT 45.926834 5.334130 5,350 170 144 0
2022-01-13 12:47:27 GMT 45.933380 5.332523 5,350 169 142 64
2022-01-13 12:47:16 GMT 45.940063 5.330848 5,325 170 141 64
2022-01-13 12:47:06 GMT 45.946472 5.329307 5,350 170 139 0
2022-01-13 12:46:56 GMT 45.952972 5.327751 5,350 170 139 0
2022-01-13 12:46:46 GMT 45.959747 5.326225 5,350 171 140 0
2022-01-13 12:46:36 GMT 45.965775 5.324799 5,350 169 142 -64
2022-01-13 12:46:24 GMT 45.973595 5.322807 5,350 170 142 0
2022-01-13 12:46:16 GMT 45.979038 5.321503 5,350 170 142 -64
2022-01-13 12:46:05 GMT 45.986160 5.319727 5,350 170 141 0
2022-01-13 12:45:50 GMT 45.995800 5.317451 5,350 170 141 0
2022-01-13 12:45:45 GMT 45.998638 5.316765 5,350 170 141 64
2022-01-13 12:45:18 GMT 46.016048 5.312439 5,350 170 139 64
2022-01-13 12:44:53 GMT 46.032074 5.308674 5,350 169 141 -64
2022-01-13 12:44:18 GMT 46.054546 5.303169 5,350 171 140 64
2022-01-13 12:44:14 GMT 46.057156 5.302689 5,350 171 140 0
2022-01-13 12:44:04 GMT 46.063431 5.301372 5,350 172 139 -64
2022-01-13 12:43:54 GMT 46.069908 5.300079 5,350 172 139 0
2022-01-13 12:42:52 GMT 46.109432 5.293076 5,350 173 137 64
2022-01-13 12:42:24 GMT 46.127403 5.290123 5,350 168 135 -64
2022-01-13 12:42:09 GMT 46.135967 5.286827 5,350 163 133 0
2022-01-13 12:42:03 GMT 46.139507 5.285316 5,350 163 132 64
2022-01-13 12:40:59 GMT 46.177029 5.269318 5,350 163 134 0
2022-01-13 12:38:55 GMT 46.253838 5.243706 5,350 172 143 0
2022-01-13 12:38:37 GMT 46.265709 5.241508 5,350 173 142 0
2022-01-13 12:38:27 GMT 46.272171 5.240479 5,350 173 143 64
2022-01-13 12:38:18 GMT 46.278091 5.239449 5,350 173 144 -64
2022-01-13 12:38:08 GMT 46.284851 5.238201 5,350 172 146 0
2022-01-13 12:37:59 GMT 46.291260 5.236995 5,350 172 147 64
2022-01-13 12:37:48 GMT 46.298630 5.235588 5,350 172 147 64
2022-01-13 12:37:38 GMT 46.305130 5.234449 5,350 173 147 -64
2022-01-13 12:37:28 GMT 46.311749 5.233337 5,350 173 148 -64
2022-01-13 12:37:18 GMT 46.318592 5.232101 5,350 173 150 0
2022-01-13 12:37:09 GMT 46.325390 5.230934 5,350 173 151 64
We lost coverage of the aircraft here for a total of 37 minutes
2022-01-13 11:59:48 GMT 47.896729 5.639626 5,350 199 158 -64
2022-01-13 11:59:28 GMT 47.910049 5.646286 5,350 199 158 64
2022-01-13 11:59:19 GMT 47.916870 5.649649 5,350 199 158 -64
2022-01-13 11:59:08 GMT 47.924515 5.653496 5,350 199 159 0
2022-01-13 11:58:59 GMT 47.930878 5.656654 5,350 199 159 -64
2022-01-13 11:58:45 GMT 47.940125 5.661255 5,350 199 158 64
2022-01-13 11:58:38 GMT 47.944942 5.663593 5,350 198 158 64
2022-01-13 11:58:28 GMT 47.951969 5.666973 5,350 199 157 -64
2022-01-13 11:58:14 GMT 47.961502 5.671692 5,350 199 157 0
2022-01-13 11:58:05 GMT 47.967819 5.675056 5,350 200 159 128
2022-01-13 11:57:57 GMT 47.973953 5.678078 5,325 198 159 256
2022-01-13 11:57:48 GMT 47.980087 5.681030 5,275 199 160 64
2022-01-13 11:57:38 GMT 47.987072 5.684368 5,300 198 158 -64
2022-01-13 11:57:26 GMT 47.995171 5.688453 5,300 199 159 -64
2022-01-13 11:57:17 GMT 48.001740 5.691536 5,300 197 158 0
2022-01-13 11:57:07 GMT 48.008469 5.694214 5,300 194 156 0
2022-01-13 11:56:56 GMT 48.016022 5.696892 5,300 193 155 0
2022-01-13 11:56:48 GMT 48.022358 5.699017 5,300 193 156 0
2022-01-13 11:56:37 GMT 48.029434 5.701270 5,300 193 155 0
2022-01-13 11:56:27 GMT 48.036926 5.703665 5,300 193 152 0
2022-01-13 11:56:16 GMT 48.043991 5.706024 5,300 193 151 0
2022-01-13 11:56:07 GMT 48.050537 5.708290 5,300 194 150 -64
2022-01-13 11:55:57 GMT 48.057411 5.710637 5,300 194 150 0
2022-01-13 11:55:46 GMT 48.064533 5.713102 5,300 194 153 64
2022-01-13 11:55:36 GMT 48.071228 5.715431 5,300 194 155 0
2022-01-13 11:55:27 GMT 48.078598 5.717903 5,300 193 156 0
2022-01-13 11:55:16 GMT 48.085693 5.720306 5,300 193 156 0
2022-01-13 11:55:06 GMT 48.093063 5.722778 5,300 193 157 -64
2022-01-13 11:54:56 GMT 48.099838 5.725044 5,300 193 156 0
2022-01-13 11:54:46 GMT 48.107082 5.727469 5,300 194 156 -64
2022-01-13 11:54:34 GMT 48.115356 5.730469 5,300 194 156 0
2022-01-13 11:54:25 GMT 48.121536 5.732529 5,300 193 156 64
2022-01-13 11:54:15 GMT 48.128403 5.734722 5,300 193 155 -64
2022-01-13 11:54:06 GMT 48.135712 5.737187 5,300 194 154 -64
2022-01-13 11:53:55 GMT 48.142647 5.739582 5,300 193 152 0
2022-01-13 11:53:45 GMT 48.149490 5.741906 5,300 194 153 0
2022-01-13 11:53:35 GMT 48.156429 5.744300 5,300 194 154 64
2022-01-13 11:53:25 GMT 48.163513 5.746695 5,300 193 154 0
2022-01-13 11:53:14 GMT 48.170700 5.749160 5,300 194 154 -64
2022-01-13 11:53:04 GMT 48.177795 5.751632 5,300 194 154 0
2022-01-13 11:52:54 GMT 48.184498 5.753873 5,300 193 154 64
2022-01-13 11:52:44 GMT 48.191574 5.756202 5,300 193 153 -64
2022-01-13 11:52:34 GMT 48.198929 5.758715 5,300 193 153 64
2022-01-13 11:52:22 GMT 48.206863 5.761343 5,300 193 153 -64
2022-01-13 11:52:14 GMT 48.212906 5.763385 5,300 193 152 -64
2022-01-13 11:52:02 GMT 48.220642 5.766062 5,300 194 153 0
2022-01-13 11:51:52 GMT 48.227554 5.768527 5,300 194 154 -64
2022-01-13 11:51:40 GMT 48.235840 5.771414 5,300 193 154 64
2022-01-13 11:51:31 GMT 48.242176 5.773460 5,300 193 155 0
2022-01-13 11:51:17 GMT 48.251862 5.776696 5,300 194 155 -64
2022-01-13 11:51:13 GMT 48.254929 5.777752 5,300 194 154 64
2022-01-13 11:50:07 GMT 48.301296 5.793698 5,300 193 152 64
2022-01-13 11:49:25 GMT 48.328671 5.806780 5,300 201 156 64
2022-01-13 11:49:18 GMT 48.333344 5.809373 5,300 201 157 -64
2022-01-13 11:49:10 GMT 48.339287 5.812707 5,300 201 157 -64
2022-01-13 11:48:59 GMT 48.346252 5.816627 5,300 201 157 -64
2022-01-13 11:48:49 GMT 48.353203 5.820441 5,300 201 157 -64
2022-01-13 11:48:41 GMT 48.358841 5.823669 5,300 201 158 0
2022-01-13 11:48:18 GMT 48.374573 5.832512 5,300 201 157 -64
2022-01-13 11:48:09 GMT 48.380577 5.835836 5,300 201 157 64
2022-01-13 11:47:57 GMT 48.388771 5.840534 5,300 201 156 0
2022-01-13 11:47:38 GMT 48.402317 5.848124 5,300 201 155 -64
2022-01-13 11:47:28 GMT 48.408417 5.851628 5,300 201 156 64
2022-01-13 11:47:20 GMT 48.414326 5.854918 5,300 201 157 0
2022-01-13 11:47:10 GMT 48.421051 5.858600 5,300 201 156 -64
2022-01-13 11:47:00 GMT 48.427921 5.862507 5,300 201 155 -64
2022-01-13 11:46:46 GMT 48.437988 5.868249 5,300 202 155 64
2022-01-13 11:46:36 GMT 48.443619 5.871488 5,300 201 157 64
2022-01-13 11:46:26 GMT 48.450760 5.875432 5,300 201 157 0
2022-01-13 11:46:16 GMT 48.457668 5.879276 5,300 201 157 -64
2022-01-13 11:46:06 GMT 48.464951 5.883390 5,300 201 157 0
2022-01-13 11:45:56 GMT 48.471073 5.886937 5,300 201 158 64
2022-01-13 11:45:46 GMT 48.478317 5.890996 5,300 201 157 0
2022-01-13 11:45:35 GMT 48.485413 5.895010 5,300 201 157 0
2022-01-13 11:45:29 GMT 48.489883 5.897490 5,300 201 156 -64
2022-01-13 11:45:25 GMT 48.492233 5.898813 5,300 201 156 0
2022-01-13 11:45:15 GMT 48.499237 5.902757 5,300 201 156 0
2022-01-13 11:45:06 GMT 48.505508 5.906278 5,300 201 156 0
2022-01-13 11:44:57 GMT 48.511734 5.909799 5,300 201 156 64
2022-01-13 11:44:54 GMT 48.513062 5.910574 5,300 201 156 64
2022-01-13 11:44:45 GMT 48.519333 5.914095 5,300 201 156 0
2022-01-13 11:44:34 GMT 48.526752 5.918306 5,300 201 156 0
2022-01-13 11:44:24 GMT 48.533268 5.922065 5,300 201 156 0
2022-01-13 11:44:14 GMT 48.540161 5.925927 5,300 201 157 0
2022-01-13 11:44:05 GMT 48.546864 5.929726 5,300 201 157 64
2022-01-13 11:43:54 GMT 48.554123 5.933814 5,300 201 157 0
2022-01-13 11:43:46 GMT 48.559296 5.936702 5,300 201 158 -64
2022-01-13 11:43:43 GMT 48.561340 5.937894 5,300 201 158 -64
2022-01-13 11:43:38 GMT 48.565521 5.940294 5,300 201 158 0
2022-01-13 11:43:33 GMT 48.568184 5.941797 5,300 201 157 64
2022-01-13 11:43:27 GMT 48.572605 5.944254 5,300 201 158 64
2022-01-13 11:43:24 GMT 48.574951 5.945575 5,300 201 159 64
2022-01-13 11:43:13 GMT 48.582092 5.949590 5,300 201 159 -64
2022-01-13 11:43:07 GMT 48.586338 5.952132 5,300 202 159 -64
2022-01-13 11:43:02 GMT 48.589363 5.953867 5,300 201 159 0
2022-01-13 11:42:56 GMT 48.593834 5.956397 5,300 201 160 0
2022-01-13 11:42:52 GMT 48.596466 5.957900 5,300 201 161 64
2022-01-13 11:42:46 GMT 48.600632 5.960294 5,300 201 162 64
2022-01-13 11:42:42 GMT 48.603329 5.961818 5,300 201 161 64
2022-01-13 11:42:37 GMT 48.607471 5.964131 5,300 200 162 0
2022-01-13 11:42:33 GMT 48.610519 5.965787 5,300 201 162 0
2022-01-13 11:42:26 GMT 48.615433 5.968540 5,300 201 161 0
2022-01-13 11:42:22 GMT 48.617752 5.969872 5,300 201 160 0
2022-01-13 11:42:14 GMT 48.623161 5.972949 5,300 201 158 -64
2022-01-13 11:42:11 GMT 48.625023 5.974033 5,300 201 158 -64
2022-01-13 11:42:06 GMT 48.628738 5.976140 5,300 201 156 0
2022-01-13 11:42:01 GMT 48.632099 5.978080 5,300 201 156 0
2022-01-13 11:41:55 GMT 48.636063 5.980295 5,300 201 156 0
2022-01-13 11:41:52 GMT 48.638664 5.981767 5,300 201 157 0
2022-01-13 11:41:46 GMT 48.642288 5.983887 5,300 201 157 0
2022-01-13 11:41:41 GMT 48.645691 5.985814 5,300 201 158 0
2022-01-13 11:41:35 GMT 48.649429 5.987971 5,300 201 158 0
2022-01-13 11:41:30 GMT 48.652863 5.989934 5,300 201 159 0
2022-01-13 11:41:25 GMT 48.656399 5.991958 5,300 201 159 64
2022-01-13 11:41:20 GMT 48.659866 5.993887 5,300 201 160 64
2022-01-13 11:41:15 GMT 48.663334 5.995861 5,300 201 160 0
2022-01-13 11:41:10 GMT 48.666687 5.997740 5,300 201 160 0
2022-01-13 11:41:05 GMT 48.670273 5.999836 5,300 201 160 -64
2022-01-13 11:41:01 GMT 48.673737 6.001775 5,300 201 159 0
2022-01-13 11:40:54 GMT 48.677998 6.004173 5,300 201 159 0
2022-01-13 11:40:50 GMT 48.680698 6.005763 5,300 201 159 0
2022-01-13 11:40:43 GMT 48.685402 6.008437 5,300 201 159 0
2022-01-13 11:40:39 GMT 48.688194 6.009955 5,300 201 159 0
2022-01-13 11:40:35 GMT 48.691174 6.011690 5,300 201 159 -64
2022-01-13 11:40:30 GMT 48.694805 6.013714 5,300 201 159 0
2022-01-13 11:40:24 GMT 48.698456 6.015789 5,300 201 159 0
2022-01-13 11:40:20 GMT 48.701797 6.017691 5,300 201 159 0
2022-01-13 11:40:13 GMT 48.705917 6.020085 5,300 201 159 0
2022-01-13 11:40:10 GMT 48.708710 6.021705 5,300 201 159 64
2022-01-13 11:40:04 GMT 48.712234 6.023747 5,300 201 159 0
2022-01-13 11:39:59 GMT 48.715752 6.025712 5,300 201 160 0
2022-01-13 11:39:54 GMT 48.719467 6.027832 5,300 201 160 -64
2022-01-13 11:39:49 GMT 48.722923 6.029832 5,300 201 160 -64
2022-01-13 11:39:44 GMT 48.726505 6.031856 5,300 201 160 64
2022-01-13 11:39:38 GMT 48.730270 6.034029 5,300 201 160 64
2022-01-13 11:39:33 GMT 48.733887 6.036072 5,300 201 160 0
2022-01-13 11:39:29 GMT 48.737122 6.037927 5,300 201 160 0
2022-01-13 11:39:23 GMT 48.741074 6.040156 5,300 201 160 0
2022-01-13 11:39:18 GMT 48.744141 6.041917 5,300 201 160 0
2022-01-13 11:39:14 GMT 48.751053 6.045861 5,300 201 156 -64
2022-01-13 11:39:08 GMT 48.751053 6.045861 5,300 201 159 0
2022-01-13 11:39:03 GMT 48.754436 6.047757 5,300 201 158 -64
2022-01-13 11:38:58 GMT 48.758022 6.049781 5,300 201 158 64
2022-01-13 11:38:53 GMT 48.761993 6.052058 5,300 202 157 -64
2022-01-13 11:38:47 GMT 48.765377 6.054045 5,300 202 157 -64
2022-01-13 11:38:43 GMT 48.768402 6.055780 5,300 201 156 -64
2022-01-13 11:38:37 GMT 48.772129 6.057948 5,300 201 158 0
2022-01-13 11:38:33 GMT 48.775200 6.059683 5,300 201 158 0
2022-01-13 11:38:28 GMT 48.778736 6.061707 5,300 201 157 0
2022-01-13 11:38:23 GMT 48.782043 6.063586 5,300 201 157 0
2022-01-13 11:38:18 GMT 48.785706 6.065650 5,300 201 157 64
2022-01-13 11:38:12 GMT 48.789165 6.067561 5,300 201 158 64
2022-01-13 11:38:08 GMT 48.792751 6.069585 5,300 201 158 0
2022-01-13 11:38:02 GMT 48.796143 6.071496 5,300 201 156 -64
2022-01-13 11:37:57 GMT 48.799545 6.073416 5,300 201 156 -64
2022-01-13 11:37:52 GMT 48.803040 6.075439 5,300 191 152 64
2022-01-13 11:37:46 GMT 48.806900 6.077693 5,300 202 158 64
2022-01-13 11:37:42 GMT 48.809647 6.079383 5,300 203 157 64
2022-01-13 11:37:37 GMT 48.813446 6.081637 5,300 200 157 64
2022-01-13 11:37:33 GMT 48.816353 6.083101 5,300 194 156 64
2022-01-13 11:37:26 GMT 48.820724 6.084665 5,300 191 151 0
2022-01-13 11:37:21 GMT 48.824173 6.085631 5,300 190 153 -64
2022-01-13 11:37:16 GMT 48.827637 6.086496 5,300 191 153 -64
2022-01-13 11:37:11 GMT 48.834740 6.088522 5,300 191 152 64
2022-01-13 11:37:07 GMT 48.834740 6.088522 5,300 191 151 0
2022-01-13 11:36:59 GMT 48.839722 6.089895 5,300 191 151 64
2022-01-13 11:36:55 GMT 48.842102 6.090510 5,300 191 152 0
2022-01-13 11:36:50 GMT 48.845539 6.091413 5,300 190 152 0
2022-01-13 11:36:46 GMT 48.848740 6.092271 5,300 190 152 0
2022-01-13 11:36:41 GMT 48.851917 6.093148 5,300 190 152 0
2022-01-13 11:36:36 GMT 48.855827 6.094160 5,300 191 151 -64
2022-01-13 11:36:31 GMT 48.858856 6.094955 5,300 191 151 -64
2022-01-13 11:36:25 GMT 48.862904 6.096039 5,300 191 151 0
2022-01-13 11:36:21 GMT 48.870075 6.097990 5,300 190 151 64
2022-01-13 11:36:16 GMT 48.870075 6.097990 5,300 190 151 0
2022-01-13 11:36:10 GMT 48.873322 6.098891 5,300 191 153 64
2022-01-13 11:36:05 GMT 48.877121 6.099947 5,300 191 151 0
2022-01-13 11:36:00 GMT 48.880081 6.100737 5,300 191 152 -64
2022-01-13 11:35:55 GMT 48.883900 6.101821 5,300 191 152 -64
2022-01-13 11:35:50 GMT 48.887020 6.102616 5,300 191 153 64
2022-01-13 11:35:45 GMT 48.891113 6.103773 5,300 191 153 0
2022-01-13 11:35:41 GMT 48.893829 6.104525 5,300 191 153 64
2022-01-13 11:35:34 GMT 48.898224 6.105652 5,300 191 153 64
2022-01-13 11:35:30 GMT 48.900936 6.106447 5,275 191 154 128
2022-01-13 11:35:27 GMT 48.904404 6.107342 5,275 191 154 128
2022-01-13 11:35:24 GMT 48.905174 6.107531 5,275 191 154 128
2022-01-13 11:35:17 GMT 48.910202 6.108904 5,275 191 153 0
2022-01-13 11:35:14 GMT 48.912277 6.109455 5,275 191 152 64
2022-01-13 11:35:11 GMT 48.915070 6.110229 5,275 190 152 0
2022-01-13 11:35:08 GMT 48.916443 6.110582 5,275 190 151 0
2022-01-13 11:35:04 GMT 48.919144 6.111286 5,275 190 151 0
2022-01-13 11:34:58 GMT 48.923191 6.112374 5,275 190 151 0
2022-01-13 11:34:53 GMT 48.926682 6.113313 5,275 190 150 0
2022-01-13 11:34:47 GMT 48.930824 6.114470 5,275 191 149 -64
2022-01-13 11:34:44 GMT 48.933247 6.115120 5,275 191 149 0
2022-01-13 11:34:38 GMT 48.936996 6.116145 5,275 191 150 0
2022-01-13 11:34:34 GMT 48.939857 6.116927 5,275 191 150 0
2022-01-13 11:34:27 GMT 48.945068 6.118373 5,275 190 151 64
2022-01-13 11:34:23 GMT 48.947067 6.118892 5,275 190 151 0
2022-01-13 11:34:18 GMT 48.951233 6.119948 5,275 190 151 0
2022-01-13 11:34:13 GMT 48.954025 6.120723 5,275 190 151 0
2022-01-13 11:34:10 GMT 48.956772 6.121498 5,275 191 150 0
2022-01-13 11:34:07 GMT 48.960846 6.122624 5,275 190 151 -64
2022-01-13 11:34:04 GMT 48.960846 6.122624 5,275 191 149 0
2022-01-13 11:33:59 GMT 48.963692 6.123360 5,275 191 150 0
2022-01-13 11:33:53 GMT 48.967712 6.124526 5,275 191 151 0
2022-01-13 11:33:50 GMT 48.970531 6.125312 5,275 191 151 0
2022-01-13 11:33:47 GMT 48.971832 6.125653 5,275 191 149 -64
2022-01-13 11:33:43 GMT 48.974724 6.126396 5,275 190 151 -64
2022-01-13 11:33:39 GMT 48.977470 6.127119 5,275 190 151 0
2022-01-13 11:33:33 GMT 48.981892 6.128347 5,275 191 151 0
2022-01-13 11:33:26 GMT 48.986317 6.129504 5,275 191 150 0
2022-01-13 11:33:21 GMT 48.990459 6.130660 5,275 191 151 0
2022-01-13 11:33:18 GMT 48.991974 6.131075 5,275 191 151 0
2022-01-13 11:33:13 GMT 48.995819 6.132132 5,275 190 151 0
2022-01-13 11:33:10 GMT 48.997696 6.132625 5,275 190 151 0
2022-01-13 11:33:07 GMT 49.000050 6.133262 5,275 191 149 0
2022-01-13 11:33:02 GMT 49.002792 6.133985 5,275 191 150 0
2022-01-13 11:32:59 GMT 49.005432 6.134667 5,275 191 150 0
2022-01-13 11:32:56 GMT 49.007496 6.135214 5,275 191 150 0
2022-01-13 11:32:53 GMT 49.010101 6.135935 5,275 191 150 0
2022-01-13 11:32:46 GMT 49.014130 6.137061 5,275 191 149 0
2022-01-13 11:32:42 GMT 49.016922 6.137836 5,275 191 150 0
2022-01-13 11:32:35 GMT 49.021694 6.139189 5,275 191 149 0
2022-01-13 11:32:32 GMT 49.023743 6.139738 5,275 191 149 0
2022-01-13 11:32:28 GMT 49.026169 6.140371 5,275 190 150 0
2022-01-13 11:32:25 GMT 49.030632 6.141574 5,275 191 149 0
2022-01-13 11:32:22 GMT 49.030632 6.141574 5,275 191 148 -64
2022-01-13 11:32:16 GMT 49.035053 6.142731 5,275 191 149 -64
2022-01-13 11:32:11 GMT 49.038391 6.143681 5,275 191 148 0
2022-01-13 11:32:08 GMT 49.039993 6.144104 5,275 191 148 0
2022-01-13 11:32:05 GMT 49.042236 6.144738 5,275 191 148 0
2022-01-13 11:32:02 GMT 49.044662 6.145372 5,275 191 148 0
2022-01-13 11:31:55 GMT 49.048874 6.146569 5,275 191 148 0
2022-01-13 11:31:50 GMT 49.051941 6.147414 5,275 191 148 0
2022-01-13 11:31:47 GMT 49.053818 6.147907 5,275 191 148 64
2022-01-13 11:31:44 GMT 49.056244 6.148541 5,275 191 148 64
2022-01-13 11:31:41 GMT 49.058189 6.149091 5,275 191 148 0
2022-01-13 11:31:38 GMT 49.060146 6.149597 5,275 191 147 0
2022-01-13 11:31:35 GMT 49.063869 6.150609 5,275 191 147 0
2022-01-13 11:31:31 GMT 49.065220 6.150970 5,275 191 147 0
2022-01-13 11:31:27 GMT 49.067230 6.151569 5,275 191 146 -64
2022-01-13 11:31:24 GMT 49.069504 6.152127 5,275 191 146 -64
2022-01-13 11:31:20 GMT 49.071922 6.152777 5,275 191 147 0
2022-01-13 11:31:16 GMT 49.075371 6.153717 5,275 191 146 -64
2022-01-13 11:31:10 GMT 49.078720 6.154668 5,275 191 146 0
2022-01-13 11:31:07 GMT 49.080723 6.155235 5,275 191 146 -64
2022-01-13 11:31:03 GMT 49.084030 6.156076 5,275 191 146 0
2022-01-13 11:31:00 GMT 49.085632 6.156569 5,275 191 146 -64
2022-01-13 11:30:57 GMT 49.087658 6.157114 5,275 191 146 0
2022-01-13 11:30:52 GMT 49.090942 6.157978 5,275 191 146 0
2022-01-13 11:30:48 GMT 49.094421 6.158964 5,275 190 146 0
2022-01-13 11:30:45 GMT 49.095573 6.159282 5,275 191 147 0
2022-01-13 11:30:40 GMT 49.098953 6.160161 5,275 190 146 -64
2022-01-13 11:30:37 GMT 49.100925 6.160656 5,275 191 146 0
2022-01-13 11:30:34 GMT 49.102936 6.161217 5,275 191 148 0
2022-01-13 11:30:30 GMT 49.105721 6.162029 5,275 191 146 0
2022-01-13 11:30:25 GMT 49.109344 6.162978 5,275 191 148 0
2022-01-13 11:30:20 GMT 49.112705 6.163908 5,275 191 147 0
2022-01-13 11:30:17 GMT 49.114334 6.164342 5,275 191 147 0
2022-01-13 11:30:14 GMT 49.116348 6.164950 5,275 191 147 0
2022-01-13 11:30:10 GMT 49.119553 6.165795 5,275 191 147 0
2022-01-13 11:30:07 GMT 49.121429 6.166288 5,275 191 147 0
2022-01-13 11:30:04 GMT 49.123032 6.166781 5,275 191 147 0
2022-01-13 11:29:59 GMT 49.126438 6.167667 5,275 191 148 0
2022-01-13 11:29:54 GMT 49.129761 6.168612 5,275 191 148 0
2022-01-13 11:29:49 GMT 49.133286 6.169598 5,275 191 148 0
2022-01-13 11:29:44 GMT 49.136677 6.170486 5,275 191 148 64
2022-01-13 11:29:41 GMT 49.138538 6.170992 5,275 191 148 0
2022-01-13 11:29:37 GMT 49.141617 6.171852 5,275 191 148 0
2022-01-13 11:29:33 GMT 49.143585 6.172345 5,275 191 148 0
2022-01-13 11:29:30 GMT 49.146130 6.173015 5,275 191 148 0
2022-01-13 11:29:26 GMT 49.148830 6.173738 5,275 191 148 0
2022-01-13 11:29:22 GMT 49.151482 6.174461 5,275 191 148 0
2022-01-13 11:29:19 GMT 49.153671 6.175039 5,275 191 147 0
2022-01-13 11:29:14 GMT 49.157394 6.176051 5,275 191 147 0
2022-01-13 11:29:10 GMT 49.159973 6.176781 5,275 191 147 0
2022-01-13 11:29:06 GMT 49.162235 6.177424 5,275 191 147 0
2022-01-13 11:29:03 GMT 49.163818 6.177858 5,275 191 147 0
2022-01-13 11:29:00 GMT 49.166286 6.178581 5,275 190 150 64
2022-01-13 11:28:56 GMT 49.169170 6.179376 5,275 191 148 0
2022-01-13 11:28:53 GMT 49.170567 6.179810 5,275 191 148 0
2022-01-13 11:28:49 GMT 49.173660 6.180655 5,275 191 148 0
2022-01-13 11:28:45 GMT 49.175968 6.181255 5,275 191 149 0
2022-01-13 11:28:41 GMT 49.178947 6.182050 5,275 191 149 0
2022-01-13 11:28:38 GMT 49.181030 6.182627 5,275 190 150 64
2022-01-13 11:28:34 GMT 49.183411 6.183260 5,275 191 148 0
2022-01-13 11:28:30 GMT 49.185928 6.183894 5,275 191 148 0
2022-01-13 11:28:27 GMT 49.188080 6.184528 5,275 191 149 0
2022-01-13 11:28:24 GMT 49.190399 6.185158 5,275 191 148 -64
2022-01-13 11:28:21 GMT 49.192383 6.185655 5,275 191 148 0
2022-01-13 11:28:18 GMT 49.195084 6.186430 5,275 191 148 0
2022-01-13 11:28:15 GMT 49.196503 6.186782 5,275 191 148 0
2022-01-13 11:28:11 GMT 49.198929 6.187486 5,275 191 148 0
2022-01-13 11:28:08 GMT 49.201199 6.188122 5,275 191 148 -64
2022-01-13 11:28:05 GMT 49.203232 6.188683 5,275 191 148 0
2022-01-13 11:28:02 GMT 49.205578 6.189350 5,275 191 148 0
2022-01-13 11:27:58 GMT 49.207996 6.190001 5,275 191 149 0
2022-01-13 11:27:55 GMT 49.210136 6.190579 5,275 191 149 0
2022-01-13 11:27:51 GMT 49.212559 6.191230 5,275 191 149 64
2022-01-13 11:27:48 GMT 49.215305 6.192025 5,275 191 149 64
2022-01-13 11:27:45 GMT 49.217056 6.192486 5,275 191 149 0
2022-01-13 11:27:42 GMT 49.219124 6.193037 5,275 191 149 0
2022-01-13 11:27:37 GMT 49.222382 6.193904 5,275 191 149 0
2022-01-13 11:27:32 GMT 49.225754 6.194810 5,275 191 149 0
2022-01-13 11:27:27 GMT 49.228729 6.195655 5,275 191 149 0
2022-01-13 11:27:24 GMT 49.231319 6.196361 5,275 191 149 0
2022-01-13 11:27:17 GMT 49.235649 6.197518 5,275 191 149 0
2022-01-13 11:27:14 GMT 49.237556 6.198096 5,275 191 149 0
2022-01-13 11:27:11 GMT 49.240082 6.198754 5,275 191 149 0
2022-01-13 11:27:07 GMT 49.243282 6.199614 5,275 191 149 0
2022-01-13 11:27:04 GMT 49.244476 6.199951 5,275 191 149 0
2022-01-13 11:27:01 GMT 49.246948 6.200655 5,275 191 149 0
2022-01-13 11:26:57 GMT 49.251755 6.201923 5,275 191 149 0
2022-01-13 11:26:54 GMT 49.251755 6.201923 5,275 192 149 64
2022-01-13 11:26:51 GMT 49.256828 6.203300 5,275 190 148 -64
2022-01-13 11:26:46 GMT 49.256828 6.203300 5,275 190 147 -64
2022-01-13 11:26:41 GMT 49.260178 6.204106 5,275 190 147 -64
2022-01-13 11:26:36 GMT 49.263702 6.205022 5,275 191 148 0
2022-01-13 11:26:33 GMT 49.265766 6.205685 5,275 192 149 0
2022-01-13 11:26:27 GMT 49.269424 6.206853 5,275 189 149 64
2022-01-13 11:26:24 GMT 49.272007 6.207420 5,275 187 148 64
2022-01-13 11:26:20 GMT 49.274323 6.207628 5,275 179 147 0
2022-01-13 11:26:16 GMT 49.277573 6.207346 5,275 170 144 0
2022-01-13 11:26:13 GMT 49.279266 6.206914 5,275 162 142 0
2022-01-13 11:26:10 GMT 49.281189 6.206219 5,275 162 142 0
2022-01-13 11:26:05 GMT 49.284485 6.204811 5,275 163 142 0
2022-01-13 11:26:01 GMT 49.287186 6.203543 5,275 162 142 -64
2022-01-13 11:25:56 GMT 49.290024 6.202205 5,275 162 142 0
2022-01-13 11:25:53 GMT 49.291885 6.201276 5,275 162 142 0
2022-01-13 11:25:50 GMT 49.293839 6.200409 5,275 162 142 0
2022-01-13 11:25:46 GMT 49.296295 6.199247 5,275 162 142 0
2022-01-13 11:25:42 GMT 49.299500 6.197768 5,275 162 142 0
2022-01-13 11:25:37 GMT 49.301704 6.196723 5,275 162 142 0
2022-01-13 11:25:33 GMT 49.304626 6.195374 5,275 163 142 0
2022-01-13 11:25:26 GMT 49.311481 6.192169 5,275 163 142 0
2022-01-13 11:25:22 GMT 49.311481 6.192169 5,275 163 142 0
2022-01-13 11:25:15 GMT 49.316044 6.190001 5,275 163 142 0
2022-01-13 11:25:12 GMT 49.317352 6.189387 5,275 163 141 0
2022-01-13 11:25:08 GMT 49.320560 6.187905 5,275 163 141 0
2022-01-13 11:25:05 GMT 49.323944 6.186359 5,275 163 142 0
2022-01-13 11:25:02 GMT 49.323944 6.186359 5,275 163 143 64
2022-01-13 11:24:58 GMT 49.326473 6.185158 5,275 163 142 -64
2022-01-13 11:24:55 GMT 49.330215 6.183472 5,275 163 142 -64
2022-01-13 11:24:52 GMT 49.330215 6.183472 5,275 163 143 0
2022-01-13 11:24:47 GMT 49.333694 6.181922 5,275 163 143 -64
2022-01-13 11:24:42 GMT 49.336620 6.180532 5,275 163 143 64
2022-01-13 11:24:35 GMT 49.341293 6.178401 5,275 163 143 64
2022-01-13 11:24:32 GMT 49.342850 6.177697 5,275 162 143 64
2022-01-13 11:24:27 GMT 49.346100 6.176147 5,275 162 142 64
2022-01-13 11:24:22 GMT 49.349236 6.174606 5,400 163 137 -768
2022-01-13 11:24:16 GMT 49.352646 6.172908 5,275 162 141 -128
2022-01-13 11:24:12 GMT 49.355518 6.171570 5,775 163 137 -768
2022-01-13 11:24:07 GMT 49.358597 6.170091 5,325 162 140 -640
2022-01-13 11:24:04 GMT 49.360409 6.169257 5,375 162 139 -768
2022-01-13 11:24:01 GMT 49.365158 6.167016 5,700 163 137 -768
2022-01-13 11:23:56 GMT 49.365158 6.167016 5,475 162 139 -768
2022-01-13 11:23:51 GMT 49.372002 6.163764 5,625 162 138 -768
2022-01-13 11:23:44 GMT 49.372833 6.163330 5,625 162 138 -768
2022-01-13 11:23:40 GMT 49.375031 6.162344 5,675 163 137 -704
2022-01-13 11:23:36 GMT 49.377274 6.161288 5,725 163 138 -768
2022-01-13 11:23:31 GMT 49.381775 6.159210 5,825 163 137 -768
2022-01-13 11:23:27 GMT 49.383316 6.158541 5,850 163 138 -704
2022-01-13 11:23:22 GMT 49.386063 6.157274 5,900 163 137 -704
2022-01-13 11:23:19 GMT 49.389679 6.155583 5,925 162 138 -384
2022-01-13 11:23:16 GMT 49.389679 6.155583 5,950 163 137 -384
2022-01-13 11:23:12 GMT 49.392197 6.154386 5,975 162 138 -320
2022-01-13 11:23:09 GMT 49.393925 6.153572 5,975 162 138 -320
2022-01-13 11:23:06 GMT 49.395859 6.152696 6,000 162 138 -320
2022-01-13 11:23:03 GMT 49.397781 6.151780 6,000 163 138 -192
2022-01-13 11:23:00 GMT 49.401947 6.149808 6,000 163 138 64
2022-01-13 11:22:56 GMT 49.401947 6.149808 6,000 163 138 0
2022-01-13 11:22:52 GMT 49.404419 6.148682 6,000 163 137 0
2022-01-13 11:22:49 GMT 49.405884 6.148048 6,000 163 137 0
2022-01-13 11:22:45 GMT 49.408264 6.146921 6,000 163 137 0
2022-01-13 11:22:40 GMT 49.415131 6.143681 6,000 162 138 0
2022-01-13 11:22:35 GMT 49.415131 6.143681 6,000 162 138 0
2022-01-13 11:22:32 GMT 49.416641 6.142977 6,000 162 138 0
2022-01-13 11:22:28 GMT 49.418793 6.141921 6,000 162 138 0
2022-01-13 11:22:24 GMT 49.421158 6.140851 6,000 163 138 64
2022-01-13 11:22:21 GMT 49.423626 6.139695 6,000 163 138 0
2022-01-13 11:22:15 GMT 49.427769 6.137794 6,000 163 138 0
2022-01-13 11:22:12 GMT 49.429306 6.137052 6,000 162 139 -64
2022-01-13 11:22:09 GMT 49.430748 6.136384 6,000 162 139 0
2022-01-13 11:22:03 GMT 49.434471 6.134602 6,000 162 140 0
2022-01-13 11:22:00 GMT 49.436783 6.133551 6,000 162 140 0
2022-01-13 11:21:56 GMT 49.438896 6.132524 6,000 162 140 0
2022-01-13 11:21:53 GMT 49.440765 6.131672 6,000 162 140 0
2022-01-13 11:21:49 GMT 49.446342 6.129035 6,000 162 140 0
2022-01-13 11:21:44 GMT 49.446342 6.129035 6,000 162 140 -64
2022-01-13 11:21:41 GMT 49.448181 6.128130 6,000 162 140 0
2022-01-13 11:21:38 GMT 49.449692 6.127480 6,000 162 140 0
2022-01-13 11:21:35 GMT 49.451431 6.126613 6,000 162 140 0
2022-01-13 11:21:32 GMT 49.453281 6.125769 6,000 162 140 0
2022-01-13 11:21:28 GMT 49.455795 6.124581 6,000 162 140 0
2022-01-13 11:21:23 GMT 49.459351 6.122854 6,000 162 140 0
2022-01-13 11:21:19 GMT 49.462051 6.121481 6,000 162 140 0
2022-01-13 11:21:16 GMT 49.463837 6.120686 6,000 162 141 0
2022-01-13 11:21:12 GMT 49.465805 6.119746 6,000 163 141 0
2022-01-13 11:21:08 GMT 49.468323 6.118590 6,000 163 141 64
2022-01-13 11:21:05 GMT 49.470337 6.117650 6,000 163 141 0
2022-01-13 11:21:02 GMT 49.472305 6.116783 6,000 162 141 0
2022-01-13 11:20:59 GMT 49.474182 6.115822 6,000 160 140 0
2022-01-13 11:20:55 GMT 49.476650 6.114560 6,000 159 139 0
2022-01-13 11:20:52 GMT 49.478210 6.113675 6,000 158 139 0
2022-01-13 11:20:48 GMT 49.480865 6.112012 6,000 157 138 0
2022-01-13 11:20:45 GMT 49.482841 6.110700 6,000 156 138 64
2022-01-13 11:20:42 GMT 49.484390 6.109699 6,000 156 138 64
2022-01-13 11:20:38 GMT 49.486954 6.108037 6,000 156 138 0
2022-01-13 11:20:35 GMT 49.488602 6.106881 6,000 156 138 -64
2022-01-13 11:20:32 GMT 49.490150 6.105875 6,000 156 138 -64
2022-01-13 11:20:28 GMT 49.492584 6.104279 6,000 156 138 -64
2022-01-13 11:20:25 GMT 49.494339 6.103128 6,000 156 138 -64
2022-01-13 11:20:22 GMT 49.496201 6.101940 6,000 156 138 0
2022-01-13 11:20:18 GMT 49.498577 6.100307 6,000 156 138 0
2022-01-13 11:20:15 GMT 49.500252 6.099268 6,000 156 138 0
2022-01-13 11:20:12 GMT 49.502014 6.098063 6,000 156 138 -64
2022-01-13 11:20:08 GMT 49.506351 6.095259 6,000 156 138 0
2022-01-13 11:20:05 GMT 49.506351 6.095259 6,000 156 138 0
2022-01-13 11:20:01 GMT 49.508057 6.094087 6,000 156 138 0
2022-01-13 11:19:58 GMT 49.510208 6.092642 6,000 156 138 64
2022-01-13 11:19:54 GMT 49.512314 6.091268 6,000 156 138 0
2022-01-13 11:19:51 GMT 49.514076 6.090137 6,000 156 138 0
2022-01-13 11:19:47 GMT 49.516754 6.088377 6,000 156 138 64
2022-01-13 11:19:44 GMT 49.518314 6.087317 6,000 156 138 64
2022-01-13 11:19:41 GMT 49.519821 6.086354 6,000 156 138 0
2022-01-13 11:19:37 GMT 49.522430 6.084619 6,000 156 138 0
2022-01-13 11:19:34 GMT 49.524178 6.083457 6,000 156 138 0
2022-01-13 11:19:31 GMT 49.526508 6.081898 6,000 156 138 0
2022-01-13 11:19:27 GMT 49.528290 6.080788 6,000 156 138 0
2022-01-13 11:19:24 GMT 49.529812 6.079745 6,000 156 138 0
2022-01-13 11:19:21 GMT 49.531769 6.078403 6,000 156 138 -64
2022-01-13 11:19:15 GMT 49.536144 6.075588 6,000 157 138 0
2022-01-13 11:19:11 GMT 49.537819 6.074474 6,000 156 139 0
2022-01-13 11:19:07 GMT 49.539867 6.073138 6,000 156 139 0
2022-01-13 11:19:04 GMT 49.541592 6.072025 6,000 156 139 0
2022-01-13 11:19:01 GMT 49.543762 6.070525 6,000 156 139 0
2022-01-13 11:18:58 GMT 49.546188 6.068934 6,000 156 139 0
2022-01-13 11:18:55 GMT 49.547562 6.068067 6,000 156 139 0
2022-01-13 11:18:51 GMT 49.549644 6.066680 6,000 156 139 0
2022-01-13 11:18:47 GMT 49.552017 6.065121 6,000 156 139 0
2022-01-13 11:18:44 GMT 49.553787 6.063947 6,000 156 139 0
2022-01-13 11:18:41 GMT 49.555435 6.062863 6,000 156 139 0
2022-01-13 11:18:37 GMT 49.557930 6.061261 6,000 156 139 0
2022-01-13 11:18:34 GMT 49.559692 6.060044 6,000 156 140 0
2022-01-13 11:18:30 GMT 49.562679 6.058143 6,000 156 139 -64
2022-01-13 11:18:27 GMT 49.564541 6.056881 6,000 156 139 0
2022-01-13 11:18:23 GMT 49.566101 6.055780 6,000 156 139 0
2022-01-13 11:18:20 GMT 49.567890 6.054655 6,000 156 139 0
2022-01-13 11:18:17 GMT 49.569901 6.053250 6,000 156 139 0
2022-01-13 11:18:14 GMT 49.571777 6.052021 6,000 156 138 0
2022-01-13 11:18:10 GMT 49.573425 6.050937 6,000 156 138 0
2022-01-13 11:18:07 GMT 49.576134 6.049161 6,000 156 138 0
2022-01-13 11:18:03 GMT 49.577682 6.048118 6,000 156 138 64
2022-01-13 11:18:00 GMT 49.579670 6.046860 6,000 156 138 0
2022-01-13 11:17:56 GMT 49.581997 6.045301 6,000 156 138 64
2022-01-13 11:17:53 GMT 49.583393 6.044410 6,000 156 138 64
2022-01-13 11:17:49 GMT 49.585876 6.042770 6,000 156 138 64
2022-01-13 11:17:46 GMT 49.587982 6.041396 6,000 156 138 0
2022-01-13 11:17:43 GMT 49.590042 6.040023 6,000 156 138 0
2022-01-13 11:17:39 GMT 49.592052 6.038695 6,000 156 138 0
2022-01-13 11:17:34 GMT 49.594658 6.036987 6,000 156 138 -64
2022-01-13 11:17:30 GMT 49.597870 6.034891 6,000 156 138 0
2022-01-13 11:17:26 GMT 49.599827 6.033573 6,000 156 138 0
2022-01-13 11:17:23 GMT 49.601036 6.032756 6,000 156 139 0
2022-01-13 11:17:20 GMT 49.603271 6.031277 6,000 156 139 0
2022-01-13 11:17:16 GMT 49.606205 6.029341 6,000 156 139 -64
2022-01-13 11:17:13 GMT 49.607300 6.028603 6,000 156 139 -64
2022-01-13 11:17:10 GMT 49.608810 6.027560 6,000 156 138 0
2022-01-13 11:17:06 GMT 49.611511 6.025784 6,000 156 138 0
2022-01-13 11:17:03 GMT 49.613281 6.024591 6,000 156 138 0
2022-01-13 11:16:59 GMT 49.615494 6.023110 6,000 156 138 0
2022-01-13 11:16:55 GMT 49.618103 6.021447 6,000 156 138 0
2022-01-13 11:16:51 GMT 49.620541 6.019765 6,000 156 138 -64
2022-01-13 11:16:47 GMT 49.624035 6.017464 6,000 156 138 0
2022-01-13 11:16:43 GMT 49.625244 6.016648 6,000 156 138 64
2022-01-13 11:16:38 GMT 49.627571 6.015163 6,000 156 138 -64
2022-01-13 11:16:35 GMT 49.630051 6.013497 6,000 156 138 0
2022-01-13 11:16:32 GMT 49.631344 6.012713 6,000 156 138 0
2022-01-13 11:16:29 GMT 49.633804 6.011039 6,000 156 138 0
2022-01-13 11:16:23 GMT 49.636871 6.009016 6,000 156 138 0
2022-01-13 11:16:18 GMT 49.639664 6.007136 6,000 156 138 64
2022-01-13 11:16:15 GMT 49.641399 6.005958 6,000 156 138 0
2022-01-13 11:16:12 GMT 49.643188 6.004823 6,000 156 138 0
2022-01-13 11:16:08 GMT 49.645447 6.003286 6,000 156 138 0
2022-01-13 11:16:03 GMT 49.648006 6.001579 6,000 156 138 0
2022-01-13 11:16:00 GMT 49.650150 6.000168 6,000 156 138 0
2022-01-13 11:15:53 GMT 49.653992 5.997668 6,000 156 139 0
2022-01-13 11:15:50 GMT 49.656143 5.996222 6,000 156 139 0
2022-01-13 11:15:46 GMT 49.660858 5.993114 6,000 156 139 0
2022-01-13 11:15:43 GMT 49.661461 5.992745 6,000 156 139 0
2022-01-13 11:15:40 GMT 49.662113 5.992300 6,000 156 139 0
2022-01-13 11:15:36 GMT 49.664536 5.990667 6,000 156 139 0
2022-01-13 11:15:33 GMT 49.666306 5.989500 6,000 156 140 0
2022-01-13 11:15:29 GMT 49.668182 5.988272 6,000 156 140 -64
2022-01-13 11:15:23 GMT 49.672256 5.985525 6,000 156 139 0
2022-01-13 11:15:19 GMT 49.674179 5.984296 6,000 156 139 0
2022-01-13 11:15:13 GMT 49.678207 5.981550 6,000 156 139 0
2022-01-13 11:15:09 GMT 49.679943 5.980423 6,000 156 139 0
2022-01-13 11:15:05 GMT 49.682602 5.978586 6,000 156 139 -64
2022-01-13 11:15:02 GMT 49.685158 5.976934 6,000 156 139 0
2022-01-13 11:14:59 GMT 49.685989 5.976418 6,000 156 139 0
2022-01-13 11:14:55 GMT 49.688694 5.974558 6,000 156 139 0
2022-01-13 11:14:52 GMT 49.690430 5.973455 6,000 156 139 0
2022-01-13 11:14:49 GMT 49.691895 5.972443 6,000 156 139 0
2022-01-13 11:14:42 GMT 49.697865 5.968471 6,000 156 139 0
2022-01-13 11:14:39 GMT 49.697865 5.968471 6,000 156 139 0
2022-01-13 11:14:32 GMT 49.702240 5.965576 6,000 156 139 0
2022-01-13 11:14:29 GMT 49.703705 5.964637 6,000 156 139 0
2022-01-13 11:14:23 GMT 49.707550 5.962107 6,000 156 140 0
2022-01-13 11:14:19 GMT 49.709885 5.960517 6,000 156 140 64
2022-01-13 11:14:12 GMT 49.715607 5.956758 6,000 156 140 0
2022-01-13 11:14:09 GMT 49.715607 5.956758 6,000 156 140 0
2022-01-13 11:14:03 GMT 49.719559 5.954144 6,000 156 140 0
2022-01-13 11:13:59 GMT 49.721699 5.952660 6,000 156 140 0
2022-01-13 11:13:54 GMT 49.724728 5.950656 6,000 156 140 0
2022-01-13 11:13:51 GMT 49.726681 5.949394 6,000 156 140 -64
2022-01-13 11:13:48 GMT 49.728195 5.948374 6,000 156 140 0
2022-01-13 11:13:43 GMT 49.731430 5.946202 6,000 156 140 -64
2022-01-13 11:13:40 GMT 49.733231 5.944977 6,000 156 140 -64
2022-01-13 11:13:37 GMT 49.734688 5.944049 6,000 156 140 0
2022-01-13 11:13:32 GMT 49.737621 5.942119 6,000 156 140 0
2022-01-13 11:13:28 GMT 49.739994 5.940486 6,000 156 140 0
2022-01-13 11:13:22 GMT 49.743813 5.937962 6,000 156 140 -64
2022-01-13 11:13:19 GMT 49.745720 5.936700 6,000 156 140 0
2022-01-13 11:13:13 GMT 49.749538 5.934176 6,000 156 140 0
2022-01-13 11:13:09 GMT 49.751587 5.932834 6,000 156 140 0
2022-01-13 11:13:04 GMT 49.755032 5.930539 6,000 156 140 0
2022-01-13 11:13:01 GMT 49.756760 5.929365 6,000 156 140 0
2022-01-13 11:12:58 GMT 49.757767 5.928714 6,000 156 140 0
2022-01-13 11:12:52 GMT 49.761875 5.925936 6,000 156 140 0
2022-01-13 11:12:49 GMT 49.763596 5.924823 6,000 156 140 0
2022-01-13 11:12:42 GMT 49.767746 5.921992 6,000 156 140 0
2022-01-13 11:12:39 GMT 49.769623 5.920764 6,000 156 140 0
2022-01-13 11:12:36 GMT 49.771088 5.919824 6,000 156 140 0
2022-01-13 11:12:32 GMT 49.773838 5.917993 6,000 156 140 64
2022-01-13 11:12:28 GMT 49.776031 5.916499 6,000 156 140 0
2022-01-13 11:12:22 GMT 49.779648 5.914114 6,000 156 140 0
2022-01-13 11:12:19 GMT 49.781658 5.912723 6,000 156 140 0
2022-01-13 11:12:14 GMT 49.784733 5.910719 6,000 156 140 -64
2022-01-13 11:12:10 GMT 49.786972 5.909199 6,000 156 140 0
2022-01-13 11:12:06 GMT 49.789169 5.907681 6,000 156 140 0
2022-01-13 11:12:02 GMT 49.791824 5.905946 6,000 156 140 -64
2022-01-13 11:11:58 GMT 49.793976 5.904501 6,000 156 140 0
2022-01-13 11:11:54 GMT 49.795998 5.903221 6,000 156 140 0
2022-01-13 11:11:51 GMT 49.800980 5.899881 6,000 156 140 0
2022-01-13 11:11:46 GMT 49.800980 5.899881 6,000 156 140 0
2022-01-13 11:11:41 GMT 49.804005 5.897802 6,000 156 140 0
2022-01-13 11:11:36 GMT 49.806660 5.896021 6,000 156 140 -64
2022-01-13 11:11:31 GMT 49.809860 5.893948 6,000 156 140 0
2022-01-13 11:11:28 GMT 49.812386 5.892235 6,000 156 140 0
2022-01-13 11:11:23 GMT 49.814713 5.890676 6,000 156 141 64
2022-01-13 11:11:20 GMT 49.816620 5.889414 6,000 156 141 0
2022-01-13 11:11:17 GMT 49.818008 5.888527 6,000 156 141 64
2022-01-13 11:11:14 GMT 49.820484 5.886816 6,000 156 141 -64
2022-01-13 11:11:11 GMT 49.824394 5.884218 6,000 156 141 0
2022-01-13 11:11:07 GMT 49.824394 5.884218 6,000 156 141 0
2022-01-13 11:11:03 GMT 49.826771 5.882659 6,000 156 141 0
2022-01-13 11:10:58 GMT 49.829819 5.880577 6,000 156 141 -64
2022-01-13 11:10:54 GMT 49.832497 5.878799 6,000 156 141 -64
2022-01-13 11:10:49 GMT 49.835083 5.877035 6,000 156 141 0
2022-01-13 11:10:46 GMT 49.837006 5.875806 6,000 156 141 0
2022-01-13 11:10:43 GMT 49.838882 5.874505 6,000 156 141 0
2022-01-13 11:10:40 GMT 49.840851 5.873204 6,000 156 141 0
2022-01-13 11:10:36 GMT 49.842819 5.871903 6,000 156 141 0
2022-01-13 11:10:33 GMT 49.845062 5.870411 6,000 156 141 0
2022-01-13 11:10:30 GMT 49.846664 5.869374 6,000 156 141 0
2022-01-13 11:10:26 GMT 49.849209 5.867664 6,000 156 141 0
2022-01-13 11:10:22 GMT 49.851196 5.866338 6,000 156 141 0
2022-01-13 11:10:19 GMT 49.852936 5.865181 6,000 156 141 0
2022-01-13 11:10:15 GMT 49.855316 5.863519 6,000 156 142 0
2022-01-13 11:10:12 GMT 49.857353 5.862171 6,000 156 142 0
2022-01-13 11:10:08 GMT 49.860241 5.860241 6,000 156 142 0
2022-01-13 11:10:04 GMT 49.862705 5.858608 6,000 156 142 0
2022-01-13 11:10:00 GMT 49.865479 5.856725 6,000 156 142 0
2022-01-13 11:09:56 GMT 49.867401 5.855496 6,000 156 142 0
2022-01-13 11:09:52 GMT 49.869324 5.854195 6,000 156 142 0
2022-01-13 11:09:49 GMT 49.871181 5.852966 6,000 156 142 64
2022-01-13 11:09:45 GMT 49.873554 5.851333 6,000 156 142 0
2022-01-13 11:09:40 GMT 49.876556 5.849352 6,000 156 142 0
2022-01-13 11:09:37 GMT 49.878441 5.848067 6,000 156 142 0
2022-01-13 11:09:33 GMT 49.880951 5.846389 6,000 156 141 0
2022-01-13 11:09:29 GMT 49.883560 5.844654 6,000 156 142 -64
2022-01-13 11:09:25 GMT 49.885937 5.843019 6,000 156 142 0
2022-01-13 11:09:20 GMT 49.888687 5.841185 6,000 156 142 0
2022-01-13 11:09:17 GMT 49.890686 5.839901 6,000 156 142 0
2022-01-13 11:09:14 GMT 49.892532 5.838655 6,000 156 142 0
2022-01-13 11:09:09 GMT 49.895691 5.836559 6,000 156 142 0
2022-01-13 11:09:05 GMT 49.898693 5.834483 6,000 156 142 0
2022-01-13 11:09:00 GMT 49.901001 5.832945 6,000 156 142 0
2022-01-13 11:08:57 GMT 49.902836 5.831736 6,000 156 141 0
2022-01-13 11:08:54 GMT 49.904617 5.830560 6,000 156 141 0
2022-01-13 11:08:51 GMT 49.906082 5.829548 6,000 156 141 0
2022-01-13 11:08:47 GMT 49.908691 5.827813 6,000 156 141 0
2022-01-13 11:08:44 GMT 49.910515 5.826540 6,000 156 141 0
2022-01-13 11:08:40 GMT 49.915127 5.823496 6,000 156 141 0
2022-01-13 11:08:37 GMT 49.915127 5.823496 6,000 156 141 0
2022-01-13 11:08:34 GMT 49.916656 5.822465 6,000 156 141 0
2022-01-13 11:08:31 GMT 49.918350 5.821308 6,000 156 141 -64
2022-01-13 11:08:27 GMT 49.920898 5.819636 6,000 156 141 -64
2022-01-13 11:08:23 GMT 49.922806 5.818300 6,000 156 141 0
2022-01-13 11:08:20 GMT 49.925034 5.816827 6,000 156 141 64
2022-01-13 11:08:17 GMT 49.927002 5.815526 6,000 156 141 0
2022-01-13 11:08:14 GMT 49.929153 5.814080 6,000 156 141 0
2022-01-13 11:08:11 GMT 49.930344 5.813285 6,000 156 141 -64
2022-01-13 11:08:07 GMT 49.932907 5.811545 6,000 156 141 -64
2022-01-13 11:08:04 GMT 49.936493 5.809095 6,000 156 141 0
2022-01-13 11:08:01 GMT 49.936493 5.809095 6,000 156 141 0
2022-01-13 11:07:56 GMT 49.939098 5.807388 6,000 156 141 0
2022-01-13 11:07:53 GMT 49.941288 5.805903 6,000 156 141 -64
2022-01-13 11:07:49 GMT 49.943802 5.804178 6,000 156 141 -64
2022-01-13 11:07:45 GMT 49.946457 5.802444 6,000 156 141 0
2022-01-13 11:07:42 GMT 49.947418 5.801793 6,000 156 141 0
2022-01-13 11:07:39 GMT 49.949715 5.800262 6,000 156 141 64
2022-01-13 11:07:36 GMT 49.951492 5.799047 6,000 156 141 64
2022-01-13 11:07:33 GMT 49.953529 5.797664 6,000 156 141 0
2022-01-13 11:07:30 GMT 49.954742 5.796847 6,000 156 141 0
2022-01-13 11:07:27 GMT 49.956696 5.795585 6,000 156 141 0
2022-01-13 11:07:24 GMT 49.958607 5.794323 6,000 156 141 0
2022-01-13 11:07:21 GMT 49.961105 5.792614 6,000 156 141 0
2022-01-13 11:07:18 GMT 49.962296 5.791819 6,000 156 141 -64
2022-01-13 11:07:14 GMT 49.964722 5.790156 6,000 156 141 -64
2022-01-13 11:07:10 GMT 49.966751 5.788830 6,000 156 141 -64
2022-01-13 11:07:06 GMT 49.969528 5.786904 6,000 156 142 -64
2022-01-13 11:07:00 GMT 49.972870 5.784663 6,000 156 142 0
2022-01-13 11:06:56 GMT 49.975342 5.783001 6,000 156 142 64
2022-01-13 11:06:50 GMT 49.979233 5.780399 6,000 156 142 -64
2022-01-13 11:06:46 GMT 49.981659 5.778736 6,000 156 142 0
2022-01-13 11:06:40 GMT 49.985138 5.776359 6,000 156 141 0
2022-01-13 11:06:37 GMT 49.986923 5.775195 6,000 156 142 0
2022-01-13 11:06:33 GMT 49.989513 5.773464 6,000 156 141 0
2022-01-13 11:06:30 GMT 49.991318 5.772231 6,000 156 141 0
2022-01-13 11:06:26 GMT 49.993652 5.770641 6,000 156 141 0
2022-01-13 11:06:20 GMT 49.997314 5.768256 6,000 156 142 0
2022-01-13 11:06:16 GMT 49.999695 5.766666 6,000 156 142 0
2022-01-13 11:06:13 GMT 50.001389 5.765509 6,000 156 142 0
2022-01-13 11:06:09 GMT 50.003586 5.764064 6,000 156 144 0
2022-01-13 11:06:06 GMT 50.005669 5.762626 6,000 156 142 0
2022-01-13 11:06:03 GMT 50.007626 5.761290 6,000 156 142 0
2022-01-13 11:05:57 GMT 50.011208 5.758914 6,000 156 144 0
2022-01-13 11:05:53 GMT 50.014141 5.756910 6,000 156 144 0
2022-01-13 11:05:49 GMT 50.016098 5.755574 6,000 156 143 0
2022-01-13 11:05:46 GMT 50.018372 5.754017 6,000 156 143 0
2022-01-13 11:05:43 GMT 50.019424 5.753294 6,000 156 143 64
2022-01-13 11:05:40 GMT 50.021851 5.751704 6,000 156 143 0
2022-01-13 11:05:37 GMT 50.024151 5.750155 6,000 156 143 -64
2022-01-13 11:05:33 GMT 50.027435 5.747946 6,000 156 143 0
2022-01-13 11:05:30 GMT 50.027435 5.747946 6,000 156 143 0
2022-01-13 11:05:25 GMT 50.030529 5.745850 6,000 156 143 0
2022-01-13 11:05:22 GMT 50.032562 5.744476 6,000 156 143 0
2022-01-13 11:05:19 GMT 50.034302 5.743320 6,000 156 143 0
2022-01-13 11:05:16 GMT 50.036068 5.742138 6,000 156 144 0
2022-01-13 11:05:13 GMT 50.037689 5.741007 6,000 156 143 0
2022-01-13 11:05:09 GMT 50.040489 5.739095 6,000 156 143 0
2022-01-13 11:05:05 GMT 50.042866 5.737536 6,000 156 143 0
2022-01-13 11:05:01 GMT 50.045612 5.735680 6,000 156 143 0
2022-01-13 11:04:56 GMT 50.048401 5.733779 6,000 156 143 0
2022-01-13 11:04:53 GMT 50.050140 5.732623 6,000 156 143 0
2022-01-13 11:04:46 GMT 50.056362 5.728405 6,000 156 143 64
2022-01-13 11:04:43 GMT 50.056362 5.728405 6,000 156 144 0
2022-01-13 11:04:38 GMT 50.059296 5.726475 6,000 156 144 0
2022-01-13 11:04:35 GMT 50.061127 5.725178 6,000 156 144 0
2022-01-13 11:04:32 GMT 50.062740 5.724100 6,000 156 144 -64
2022-01-13 11:04:28 GMT 50.065163 5.722467 6,000 156 145 0
2022-01-13 11:04:25 GMT 50.067261 5.721058 6,000 156 145 0
2022-01-13 11:04:22 GMT 50.068840 5.720017 6,000 156 145 0
2022-01-13 11:04:18 GMT 50.071308 5.718310 6,000 156 145 0
2022-01-13 11:04:15 GMT 50.073448 5.716825 6,000 156 145 0
2022-01-13 11:04:12 GMT 50.074986 5.715860 6,000 156 144 0
2022-01-13 11:04:09 GMT 50.077408 5.714153 6,000 156 144 0
2022-01-13 11:04:05 GMT 50.079639 5.712742 6,000 156 143 0
2022-01-13 11:04:02 GMT 50.081177 5.711662 6,000 156 143 0
2022-01-13 11:03:58 GMT 50.083603 5.709999 6,000 156 143 64
2022-01-13 11:03:55 GMT 50.085617 5.708698 6,000 156 144 0
2022-01-13 11:03:52 GMT 50.087181 5.707620 6,000 156 144 0
2022-01-13 11:03:48 GMT 50.089966 5.705735 6,000 156 144 0
2022-01-13 11:03:44 GMT 50.092896 5.703711 6,000 156 144 0
2022-01-13 11:03:41 GMT 50.094177 5.702844 6,000 156 144 0
2022-01-13 11:03:38 GMT 50.095871 5.701687 6,000 156 144 0
2022-01-13 11:03:32 GMT 50.099762 5.699013 6,000 156 144 0
2022-01-13 11:03:28 GMT 50.102077 5.697450 6,000 156 143 0
2022-01-13 11:03:25 GMT 50.104546 5.695817 6,000 156 143 0
2022-01-13 11:03:22 GMT 50.105755 5.694926 6,000 156 143 0
2022-01-13 11:03:17 GMT 50.108364 5.693219 6,000 156 143 0
2022-01-13 11:03:14 GMT 50.110519 5.691785 6,000 156 143 0
2022-01-13 11:03:11 GMT 50.112598 5.690324 6,000 156 143 0
2022-01-13 11:03:06 GMT 50.115532 5.688394 6,000 156 143 0
2022-01-13 11:03:03 GMT 50.117676 5.686909 6,000 156 145 0
2022-01-13 11:02:58 GMT 50.120499 5.685063 6,000 156 145 0
2022-01-13 11:02:54 GMT 50.122971 5.683401 6,000 156 145 0
2022-01-13 11:02:51 GMT 50.124481 5.682317 6,000 156 145 0
2022-01-13 11:02:45 GMT 50.128567 5.679635 6,000 156 145 0
2022-01-13 11:02:42 GMT 50.131035 5.677927 6,000 156 146 0
2022-01-13 11:02:37 GMT 50.133499 5.676294 6,000 156 146 0
2022-01-13 11:02:34 GMT 50.135223 5.675107 6,000 156 146 -64
2022-01-13 11:02:31 GMT 50.137070 5.673860 6,000 156 146 -64
2022-01-13 11:02:28 GMT 50.139599 5.672137 6,000 156 145 0
2022-01-13 11:02:24 GMT 50.141968 5.670535 6,000 156 145 0
2022-01-13 11:02:21 GMT 50.143158 5.669668 6,000 156 145 0
2022-01-13 11:02:17 GMT 50.145557 5.668055 6,000 156 145 -64
2022-01-13 11:02:14 GMT 50.147598 5.666632 6,000 156 145 0
2022-01-13 11:02:11 GMT 50.149189 5.665605 6,000 156 145 0
2022-01-13 11:02:07 GMT 50.151535 5.663958 6,000 156 145 0
2022-01-13 11:02:04 GMT 50.153706 5.662561 6,000 156 144 0
2022-01-13 11:01:59 GMT 50.156433 5.660633 6,000 156 144 0
2022-01-13 11:01:56 GMT 50.158447 5.659260 6,000 156 144 0
2022-01-13 11:01:53 GMT 50.160271 5.658033 6,000 156 143 0
2022-01-13 11:01:50 GMT 50.162567 5.656513 6,000 156 143 0
2022-01-13 11:01:47 GMT 50.164032 5.655502 6,000 156 142 0
2022-01-13 11:01:43 GMT 50.166458 5.653839 6,000 156 142 0
2022-01-13 11:01:39 GMT 50.168510 5.652466 6,000 156 142 0
2022-01-13 11:01:36 GMT 50.170696 5.650981 6,000 156 142 0
2022-01-13 11:01:33 GMT 50.172653 5.649645 6,000 156 143 0
2022-01-13 11:01:29 GMT 50.174744 5.648274 6,000 156 143 0
2022-01-13 11:01:26 GMT 50.176941 5.646828 6,000 156 143 0
2022-01-13 11:01:23 GMT 50.178703 5.645562 6,000 156 145 0
2022-01-13 11:01:20 GMT 50.180660 5.644300 6,000 156 145 0
2022-01-13 11:01:17 GMT 50.182800 5.642853 6,000 156 145 0
2022-01-13 11:01:13 GMT 50.187363 5.639698 6,000 156 145 0
2022-01-13 11:01:10 GMT 50.187363 5.639698 6,000 156 145 0
2022-01-13 11:01:06 GMT 50.188850 5.638733 6,000 156 145 -64
2022-01-13 11:01:03 GMT 50.190948 5.637287 6,000 156 145 -64
2022-01-13 11:00:59 GMT 50.193649 5.635408 6,000 156 145 0
2022-01-13 11:00:56 GMT 50.194996 5.634502 6,000 156 145 0
2022-01-13 11:00:53 GMT 50.198956 5.631829 6,000 156 145 0
2022-01-13 11:00:50 GMT 50.198956 5.631829 6,000 156 143 0
2022-01-13 11:00:47 GMT 50.201019 5.630421 6,000 156 145 0
2022-01-13 11:00:43 GMT 50.203331 5.628860 6,000 156 143 0
2022-01-13 11:00:40 GMT 50.204956 5.627747 6,000 156 144 0
2022-01-13 11:00:36 GMT 50.207382 5.626084 6,000 156 147 0
2022-01-13 11:00:32 GMT 50.209579 5.624566 6,000 156 144 0
2022-01-13 11:00:29 GMT 50.212128 5.622847 6,000 156 144 -64
2022-01-13 11:00:25 GMT 50.214935 5.620952 6,000 156 147 0
2022-01-13 11:00:20 GMT 50.217133 5.619435 6,000 156 143 0
2022-01-13 11:00:16 GMT 50.220413 5.617206 6,000 156 143 -64
2022-01-13 11:00:13 GMT 50.221939 5.616182 6,000 156 144 0
2022-01-13 11:00:10 GMT 50.224960 5.614158 6,000 156 144 0
2022-01-13 11:00:07 GMT 50.224960 5.614158 6,000 156 144 0
2022-01-13 11:00:04 GMT 50.227024 5.612752 6,000 156 145 64
2022-01-13 11:00:01 GMT 50.228703 5.611564 6,000 156 145 0
2022-01-13 10:59:58 GMT 50.231167 5.609931 6,000 156 145 0
2022-01-13 10:59:53 GMT 50.233868 5.608001 6,000 156 145 64
2022-01-13 10:59:49 GMT 50.236614 5.606219 6,000 156 145 0
2022-01-13 10:59:45 GMT 50.238419 5.604907 6,000 156 145 0
2022-01-13 10:59:42 GMT 50.240524 5.603547 6,000 156 145 0
2022-01-13 10:59:39 GMT 50.242016 5.602508 6,000 156 145 0
2022-01-13 10:59:36 GMT 50.243969 5.601172 6,000 156 145 0
2022-01-13 10:59:33 GMT 50.246204 5.599687 6,000 156 146 0
2022-01-13 10:59:30 GMT 50.247803 5.598546 6,000 156 146 0
2022-01-13 10:59:25 GMT 50.250671 5.596643 6,000 156 146 0
2022-01-13 10:59:22 GMT 50.252747 5.595221 6,000 156 147 64
2022-01-13 10:59:16 GMT 50.256729 5.592475 6,000 156 147 64
2022-01-13 10:59:13 GMT 50.262955 5.588210 6,000 156 148 0
2022-01-13 10:59:06 GMT 50.262955 5.588210 6,000 156 147 -64
2022-01-13 10:59:03 GMT 50.264874 5.586993 6,000 156 148 0
2022-01-13 10:58:59 GMT 50.267338 5.585286 6,000 156 148 -64
2022-01-13 10:58:55 GMT 50.269619 5.583727 6,000 156 148 0
2022-01-13 10:58:52 GMT 50.271744 5.582283 6,000 156 148 0
2022-01-13 10:58:47 GMT 50.274536 5.580404 6,000 156 148 0
2022-01-13 10:58:44 GMT 50.276230 5.579175 6,000 156 148 0
2022-01-13 10:58:41 GMT 50.278137 5.577937 6,000 156 148 64
2022-01-13 10:58:38 GMT 50.280029 5.576573 6,000 156 148 0
2022-01-13 10:58:35 GMT 50.282421 5.574968 6,000 156 148 64
2022-01-13 10:58:31 GMT 50.286804 5.571948 6,000 156 148 64
2022-01-13 10:58:28 GMT 50.286804 5.571948 6,000 156 148 64
2022-01-13 10:58:25 GMT 50.289219 5.570365 6,000 156 148 0
2022-01-13 10:58:22 GMT 50.292801 5.567900 6,000 156 148 0
2022-01-13 10:58:19 GMT 50.292801 5.567900 6,000 156 148 0
2022-01-13 10:58:16 GMT 50.294357 5.566816 6,000 156 148 64
2022-01-13 10:58:12 GMT 50.296829 5.565153 6,000 155 148 0
2022-01-13 10:58:09 GMT 50.298714 5.563833 6,000 156 148 0
2022-01-13 10:58:05 GMT 50.300629 5.562551 6,000 156 149 0
2022-01-13 10:58:02 GMT 50.302998 5.560938 6,000 156 148 0
2022-01-13 10:57:59 GMT 50.307281 5.557969 6,000 156 148 192
2022-01-13 10:57:55 GMT 50.307281 5.557969 6,000 155 148 0
2022-01-13 10:57:52 GMT 50.309143 5.556697 6,000 155 148 0
2022-01-13 10:57:49 GMT 50.311283 5.555148 6,000 156 148 -64
2022-01-13 10:57:44 GMT 50.314308 5.553143 6,000 156 148 -64
2022-01-13 10:57:41 GMT 50.316311 5.551733 6,000 156 147 64
2022-01-13 10:57:38 GMT 50.317886 5.550698 6,000 156 147 64
2022-01-13 10:57:35 GMT 50.320450 5.548963 6,000 156 147 128
2022-01-13 10:57:31 GMT 50.322598 5.547576 5,975 156 148 256
2022-01-13 10:57:28 GMT 50.324203 5.546433 5,950 156 148 384
2022-01-13 10:57:25 GMT 50.326366 5.544978 5,900 156 149 512
2022-01-13 10:57:22 GMT 50.328735 5.543325 5,925 156 148 512
2022-01-13 10:57:19 GMT 50.332699 5.540673 5,875 156 148 512
2022-01-13 10:57:15 GMT 50.332699 5.540673 5,850 156 148 512
2022-01-13 10:57:11 GMT 50.334702 5.539262 5,825 156 148 512
2022-01-13 10:57:08 GMT 50.337067 5.537688 5,800 156 148 512
2022-01-13 10:57:04 GMT 50.339497 5.535996 5,775 156 149 512
2022-01-13 10:57:01 GMT 50.342010 5.534289 5,750 156 148 512
2022-01-13 10:56:58 GMT 50.343384 5.533351 5,725 156 148 512
2022-01-13 10:56:55 GMT 50.345268 5.532062 5,700 156 148 512
2022-01-13 10:56:52 GMT 50.347828 5.530354 5,650 156 148 512
2022-01-13 10:56:48 GMT 50.349701 5.529014 5,600 156 148 512
2022-01-13 10:56:42 GMT 50.353958 5.526051 5,575 157 146 512
2022-01-13 10:56:38 GMT 50.355927 5.524677 5,500 156 147 512
2022-01-13 10:56:35 GMT 50.357838 5.523451 5,450 156 146 512
2022-01-13 10:56:31 GMT 50.360306 5.521743 5,500 156 146 512
2022-01-13 10:56:28 GMT 50.362152 5.520485 5,450 156 145 512
2022-01-13 10:56:25 GMT 50.364540 5.518923 5,450 157 146 512
2022-01-13 10:56:20 GMT 50.366867 5.517450 5,375 156 145 512
2022-01-13 10:56:17 GMT 50.368729 5.516176 5,375 156 145 512
2022-01-13 10:56:14 GMT 50.370499 5.514988 5,350 155 144 448
2022-01-13 10:56:10 GMT 50.373779 5.512607 5,325 155 144 448
2022-01-13 10:56:06 GMT 50.375622 5.511351 5,300 155 144 512
2022-01-13 10:56:02 GMT 50.377995 5.509644 5,275 162 145 512
2022-01-13 10:55:59 GMT 50.380043 5.508456 5,225 161 145 512
2022-01-13 10:55:56 GMT 50.381699 5.507620 5,200 166 146 512
2022-01-13 10:55:53 GMT 50.383675 5.506823 5,175 170 146 512
2022-01-13 10:55:50 GMT 50.386002 5.506080 5,150 170 147 512
2022-01-13 10:55:47 GMT 50.388233 5.505487 5,125 170 147 512
2022-01-13 10:55:43 GMT 50.390488 5.504873 5,075 170 146 512
2022-01-13 10:55:40 GMT 50.393028 5.504225 5,050 170 144 512
2022-01-13 10:55:36 GMT 50.394745 5.503717 5,050 170 146 512
2022-01-13 10:55:33 GMT 50.396755 5.503185 5,025 170 147 512
2022-01-13 10:55:29 GMT 50.399921 5.502369 4,975 170 147 512
2022-01-13 10:55:26 GMT 50.402668 5.501627 4,950 170 147 512
2022-01-13 10:55:23 GMT 50.403580 5.501404 4,925 170 147 512
2022-01-13 10:55:20 GMT 50.406391 5.500587 4,900 170 147 512
2022-01-13 10:55:17 GMT 50.408485 5.500068 4,875 170 147 512
2022-01-13 10:55:14 GMT 50.410393 5.499548 4,850 170 147 512
2022-01-13 10:55:09 GMT 50.413742 5.498657 4,800 170 147 512
2022-01-13 10:55:06 GMT 50.415070 5.498296 4,750 170 147 512
2022-01-13 10:55:03 GMT 50.416992 5.497718 4,775 170 146 512
2022-01-13 10:54:57 GMT 50.421333 5.496579 4,650 170 146 512
2022-01-13 10:54:53 GMT 50.423756 5.495911 4,700 170 145 512
2022-01-13 10:54:48 GMT 50.427200 5.495020 4,575 170 145 512
2022-01-13 10:54:45 GMT 50.429214 5.494465 4,625 170 145 512
2022-01-13 10:54:40 GMT 50.433151 5.493453 4,575 170 144 512
2022-01-13 10:54:37 GMT 50.434601 5.493016 4,550 170 144 512
2022-01-13 10:54:32 GMT 50.437363 5.492297 4,525 170 144 512
2022-01-13 10:54:26 GMT 50.441299 5.491213 4,400 170 144 512
2022-01-13 10:54:22 GMT 50.444050 5.490492 4,400 170 144 512
2022-01-13 10:54:19 GMT 50.446194 5.489972 4,400 170 143 512
2022-01-13 10:54:16 GMT 50.450775 5.488683 4,375 170 144 512
2022-01-13 10:54:13 GMT 50.450775 5.488683 4,350 170 144 512
2022-01-13 10:54:09 GMT 50.452709 5.488191 4,325 170 143 512
2022-01-13 10:54:05 GMT 50.455597 5.487374 4,275 170 143 512
2022-01-13 10:54:02 GMT 50.457180 5.486929 4,225 170 142 512
2022-01-13 10:53:56 GMT 50.461212 5.485864 4,225 170 142 512
2022-01-13 10:53:52 GMT 50.463730 5.485213 4,175 170 142 512
2022-01-13 10:53:48 GMT 50.466385 5.484491 4,150 170 142 512
2022-01-13 10:53:45 GMT 50.468582 5.483885 4,125 170 142 512
2022-01-13 10:53:42 GMT 50.470505 5.483406 4,100 170 142 512
2022-01-13 10:53:36 GMT 50.474350 5.482322 4,050 170 142 512
2022-01-13 10:53:32 GMT 50.477005 5.481672 4,000 170 142 512
2022-01-13 10:53:25 GMT 50.481400 5.480515 3,925 170 143 512
2022-01-13 10:53:21 GMT 50.483963 5.479865 3,925 170 143 512
2022-01-13 10:53:17 GMT 50.486618 5.479142 3,825 170 142 384
2022-01-13 10:53:14 GMT 50.488834 5.478540 3,850 169 143 512
2022-01-13 10:53:11 GMT 50.490555 5.478058 3,775 170 139 -64
2022-01-13 10:53:06 GMT 50.493942 5.477118 3,775 170 143 512
2022-01-13 10:53:03 GMT 50.495773 5.476685 3,775 170 142 448
2022-01-13 10:52:57 GMT 50.499664 5.475673 3,750 170 141 64
2022-01-13 10:52:54 GMT 50.501450 5.475167 3,750 170 141 64
2022-01-13 10:52:51 GMT 50.503281 5.474661 3,750 170 141 64
2022-01-13 10:52:44 GMT 50.508133 5.473360 3,750 170 139 -64
2022-01-13 10:52:41 GMT 50.510017 5.472825 3,750 169 138 -64
2022-01-13 10:52:35 GMT 50.513786 5.471785 3,750 170 136 0
2022-01-13 10:52:31 GMT 50.516144 5.471191 3,750 170 135 64
2022-01-13 10:52:28 GMT 50.517883 5.470758 3,725 170 134 384
2022-01-13 10:52:24 GMT 50.521236 5.469855 3,725 170 134 320
2022-01-13 10:52:21 GMT 50.523933 5.469113 3,700 170 134 640
2022-01-13 10:52:18 GMT 50.523933 5.469113 3,650 170 134 896
2022-01-13 10:52:15 GMT 50.526031 5.468517 3,600 170 133 896
2022-01-13 10:52:12 GMT 50.528545 5.467851 3,550 169 133 896
2022-01-13 10:52:07 GMT 50.530731 5.467257 3,450 170 104 0
2022-01-13 10:52:04 GMT 50.532688 5.466663 3,450 169 131 768
2022-01-13 10:52:00 GMT 50.535015 5.465995 3,425 169 130 768
2022-01-13 10:51:56 GMT 50.537064 5.465481 3,375 170 126 768
2022-01-13 10:51:53 GMT 50.539017 5.464956 3,325 170 123 896
2022-01-13 10:51:50 GMT 50.540833 5.464436 3,275 170 122 1024
2022-01-13 10:51:45 GMT 50.543442 5.463768 3,200 171 123 1024
2022-01-13 10:51:42 GMT 50.545303 5.463249 3,150 171 123 1024
2022-01-13 10:51:37 GMT 50.548702 5.462432 3,050 171 122 960
2022-01-13 10:51:32 GMT 50.550888 5.461912 3,000 169 121 704
2022-01-13 10:51:27 GMT 50.553497 5.461170 2,950 169 120 512
2022-01-13 10:51:24 GMT 50.555374 5.460566 2,900 169 118 704
2022-01-13 10:51:21 GMT 50.556755 5.460131 2,900 169 118 704
2022-01-13 10:51:16 GMT 50.559677 5.459338 2,825 169 114 704
2022-01-13 10:51:13 GMT 50.560989 5.458943 2,775 170 112 704
2022-01-13 10:51:10 GMT 50.562668 5.458572 2,775 170 110 704
2022-01-13 10:51:05 GMT 50.564758 5.457964 2,725 170 108 704
2022-01-13 10:51:02 GMT 50.566910 5.457386 2,675 169 106 704
2022-01-13 10:50:56 GMT 50.569565 5.456663 2,600 170 104 0
2022-01-13 10:50:51 GMT 50.571945 5.456013 2,525 170 104 704
2022-01-13 10:50:45 GMT 50.574646 5.455290 2,075 169 103 704
2022-01-13 10:50:41 GMT 50.576752 5.454712 2,425 170 104 704
2022-01-13 10:50:33 GMT 50.580448 5.453747 2,325 170 104 704
2022-01-13 10:50:30 GMT 50.582062 5.453266 2,300 170 104 704
2022-01-13 10:50:25 GMT 50.584221 5.452708 2,075 171 103 704
2022-01-13 10:50:21 GMT 50.586227 5.452182 2,125 170 103 704
2022-01-13 10:50:14 GMT 50.589901 5.451223 2,100 171 103 704
2022-01-13 10:50:10 GMT 50.591309 5.450881 2,075 170 103 704
2022-01-13 10:50:06 GMT 50.593670 5.450258 2,025 170 104 704
2022-01-13 10:50:01 GMT 50.595840 5.449725 1,925 170 105 704
2022-01-13 10:49:58 GMT 50.597214 5.449363 1,925 170 105 704
2022-01-13 10:49:53 GMT 50.599396 5.448773 1,850 169 102 704
2022-01-13 10:49:50 GMT 50.601120 5.448254 1,825 169 106 768
2022-01-13 10:49:45 GMT 50.603867 5.447511 1,775 169 104 704
2022-01-13 10:49:40 GMT 50.606098 5.446843 1,700 168 101 704
2022-01-13 10:49:35 GMT 50.607964 5.446249 1,675 168 98 704
2022-01-13 10:49:32 GMT 50.609032 5.445953 1,550 169 97 768
2022-01-13 10:49:29 GMT 50.610718 5.445460 1,575 170 95 768
2022-01-13 10:49:25 GMT 50.613556 5.444737 1,525 171 90 768
2022-01-13 10:49:22 GMT 50.613556 5.444737 1,500 170 88 704
2022-01-13 10:49:18 GMT 50.614975 5.444376 1,475 170 86 704
2022-01-13 10:49:14 GMT 50.616669 5.443942 1,375 169 85 768
2022-01-13 10:49:09 GMT 50.619186 5.443220 1,325 169 85 960
2022-01-13 10:49:03 GMT 50.620743 5.442786 1,275 170 85 1024
2022-01-13 10:48:59 GMT 50.622437 5.442352 1,200 170 84 1024
2022-01-13 10:48:55 GMT 50.624451 5.441846 1,100 170 83 1024
2022-01-13 10:48:51 GMT 50.625561 5.441499 1,050 170 82 1024
2022-01-13 10:48:42 GMT 50.628983 5.440690 925 173 82 960
2022-01-13 10:48:38 GMT 50.630630 5.440545 850 185 83 1024

Making use of Plane Finder data

You are free to use the raw flight data, aircraft information and images provided in this report for your own purposes provided the data is correctly attributed to Plane Finder. We ask that you please credit Plane Finder and link to planefinder.net in close proximity to the content.

Optionally one of the following logos (no smaller then 150x24px) can be used and must link to planefinder.net

Embedding the Plane Finder map

You are welcome to embed the Plane Finder playback map on your website to offer visitors a more interactive experience. We suggest using the following HTML code:

<iframe src="//planefinder.net/data/report/AA1632-N118NZ-7700-squawk-2022-01-13/map" width="800" height="600" seamless="seamless"></iframe>

Where our data comes from

Plane Finder has a global network of data feeds and antenna radars that receive data broadcast directly from aircraft. The primary technologies used are ADS-B and MLAT. We also show feeds from the FAA and a FLARM glider feed.

Click here to find out more about the Plane Finder network.

How we collect our data